Wetterdaten: Mittwoch, 10.07.2013
Datum Zeit Temp. Aussen +5cm Feuchte Auss Luftdruck Regen Sonnenschein Regendauer UV Solar Windben
10.07.2013 00:00 18,3 C 15,1 C 72 % 1022,4 hPa 0,0 l/m 0 min 0 min 0,0 UV-I 0 W/m 0,0 km/h (0 Bft)
10.07.2013 00:02 18,2 C 15,1 C 73 % 1022,3 hPa 0,0 l/m 0 min 0 min 0,0 UV-I 0 W/m 0,0 km/h (0 Bft)
10.07.2013 00:06 18,2 C 15,1 C 73 % 1022,4 hPa 0,0 l/m 0 min 0 min 0,0 UV-I 0 W/m 0,0 km/h (0 Bft)
10.07.2013 00:08 18,1 C 15,1 C 73 % 1022,4 hPa 0,0 l/m 0 min 0 min 0,0 UV-I 0 W/m 0,0 km/h (0 Bft)
10.07.2013 00:10 18,1 C 15,1 C 73 % 1022,4 hPa 0,0 l/m 0 min 0 min 0,0 UV-I 0 W/m 0,0 km/h (0 Bft)
10.07.2013 00:12 18,1 C 15,1 C 73 % 1022,4 hPa 0,0 l/m 0 min 0 min 0,0 UV-I 0 W/m 0,0 km/h (0 Bft)
10.07.2013 00:14 18,0 C 15,1 C 74 % 1022,4 hPa 0,0 l/m 0 min 0 min 0,0 UV-I 0 W/m 0,0 km/h (0 Bft)
10.07.2013 00:16 18,0 C 15,1 C 74 % 1022,4 hPa 0,0 l/m 0 min 0 min 0,0 UV-I 0 W/m 0,0 km/h (0 Bft)
10.07.2013 00:18 17,9 C 15,1 C 74 % 1022,4 hPa 0,0 l/m 0 min 0 min 0,0 UV-I 0 W/m 0,0 km/h (0 Bft)
10.07.2013 00:20 17,9 C 15,1 C 74 % 1022,4 hPa 0,0 l/m 0 min 0 min 0,0 UV-I 0 W/m 0,0 km/h (0 Bft)
10.07.2013 00:22 17,9 C 15,1 C 74 % 1022,4 hPa 0,0 l/m 0 min 0 min 0,0 UV-I 0 W/m 0,0 km/h (0 Bft)
10.07.2013 00:24 17,8 C 15,1 C 75 % 1022,5 hPa 0,0 l/m 0 min 0 min 0,0 UV-I 0 W/m 0,0 km/h (0 Bft)
10.07.2013 00:26 17,8 C 15,1 C 75 % 1022,4 hPa 0,0 l/m 0 min 0 min 0,0 UV-I 0 W/m 0,0 km/h (0 Bft)
10.07.2013 00:28 17,8 C 15,1 C 75 % 1022,4 hPa 0,0 l/m 0 min 0 min 0,0 UV-I 0 W/m 2,6 km/h (1 Bft)
10.07.2013 00:30 17,8 C 15,7 C 76 % 1022,4 hPa 0,0 l/m 0 min 0 min 0,0 UV-I 0 W/m 0,0 km/h (0 Bft)
10.07.2013 00:32 17,7 C 15,1 C 76 % 1022,3 hPa 0,0 l/m 0 min 0 min 0,0 UV-I 0 W/m 0,0 km/h (0 Bft)
10.07.2013 00:34 17,7 C 15,1 C 76 % 1022,3 hPa 0,0 l/m 0 min 0 min 0,0 UV-I 0 W/m 0,0 km/h (0 Bft)
10.07.2013 00:36 17,7 C 15,1 C 76 % 1022,3 hPa 0,0 l/m 0 min 0 min 0,0 UV-I 0 W/m 0,0 km/h (0 Bft)
10.07.2013 00:38 17,6 C 15,7 C 76 % 1022,3 hPa 0,0 l/m 0 min 0 min 0,0 UV-I 0 W/m 0,0 km/h (0 Bft)
10.07.2013 00:40 17,6 C 15,1 C 77 % 1022,3 hPa 0,0 l/m 0 min 0 min 0,0 UV-I 0 W/m 0,0 km/h (0 Bft)
10.07.2013 00:42 17,6 C 15,1 C 77 % 1022,3 hPa 0,0 l/m 0 min 0 min 0,0 UV-I 0 W/m 2,6 km/h (1 Bft)
10.07.2013 00:44 17,6 C 15,1 C 77 % 1022,2 hPa 0,0 l/m 0 min 0 min 0,0 UV-I 0 W/m 0,0 km/h (0 Bft)
10.07.2013 00:46 17,5 C 15,1 C 77 % 1022,2 hPa 0,0 l/m 0 min 0 min 0,0 UV-I 0 W/m 0,0 km/h (0 Bft)
10.07.2013 00:48 17,4 C 15,1 C 78 % 1022,3 hPa 0,0 l/m 0 min 0 min 0,0 UV-I 0 W/m 0,0 km/h (0 Bft)
10.07.2013 00:50 17,4 C 15,1 C 78 % 1022,3 hPa 0,0 l/m 0 min 0 min 0,0 UV-I 0 W/m 0,0 km/h (0 Bft)
10.07.2013 00:52 17,4 C 15,1 C 78 % 1022,3 hPa 0,0 l/m 0 min 0 min 0,0 UV-I 0 W/m 0,0 km/h (0 Bft)
10.07.2013 00:54 17,4 C 15,1 C 78 % 1022,3 hPa 0,0 l/m 0 min 0 min 0,0 UV-I 0 W/m 0,0 km/h (0 Bft)
10.07.2013 00:56 17,3 C 15,1 C 78 % 1022,3 hPa 0,0 l/m 0 min 0 min 0,0 UV-I 0 W/m 0,0 km/h (0 Bft)
10.07.2013 00:58 17,3 C 15,1 C 78 % 1022,3 hPa 0,0 l/m 0 min 0 min 0,0 UV-I 0 W/m 0,0 km/h (0 Bft)
10.07.2013 01:00 17,3 C 15,1 C 78 % 1022,2 hPa 0,0 l/m 0 min 0 min 0,0 UV-I 0 W/m 0,0 km/h (0 Bft)
10.07.2013 01:02 17,3 C 15,1 C 78 % 1022,3 hPa 0,0 l/m 0 min 0 min 0,0 UV-I 0 W/m 0,0 km/h (0 Bft)
10.07.2013 01:06 17,2 C 15,1 C 79 % 1022,3 hPa 0,0 l/m 0 min 0 min 0,0 UV-I 0 W/m 0,0 km/h (0 Bft)
10.07.2013 01:08 17,2 C 15,1 C 79 % 1022,3 hPa 0,0 l/m 0 min 0 min 0,0 UV-I 0 W/m 0,0 km/h (0 Bft)
10.07.2013 01:10 17,2 C 15,1 C 79 % 1022,3 hPa 0,0 l/m 0 min 0 min 0,0 UV-I 0 W/m 0,0 km/h (0 Bft)
10.07.2013 01:12 17,2 C 15,1 C 80 % 1022,3 hPa 0,0 l/m 0 min 0 min 0,0 UV-I 0 W/m 0,0 km/h (0 Bft)
10.07.2013 01:14 17,1 C 15,1 C 80 % 1022,3 hPa 0,0 l/m 0 min 0 min 0,0 UV-I 0 W/m 0,0 km/h (0 Bft)
10.07.2013 01:16 17,1 C 15,1 C 80 % 1022,4 hPa 0,0 l/m 0 min 0 min 0,0 UV-I 0 W/m 0,0 km/h (0 Bft)
10.07.2013 01:18 17,1 C 15,1 C 80 % 1022,2 hPa 0,0 l/m 0 min 0 min 0,0 UV-I 0 W/m 2,6 km/h (1 Bft)
10.07.2013 01:20 17,1 C 15,7 C 81 % 1022,4 hPa 0,0 l/m 0 min 0 min 0,0 UV-I 0 W/m 0,0 km/h (0 Bft)
10.07.2013 01:22 17,0 C 15,7 C 81 % 1022,4 hPa 0,0 l/m 0 min 0 min 0,0 UV-I 0 W/m 2,6 km/h (1 Bft)
10.07.2013 01:24 17,0 C 15,7 C 81 % 1022,3 hPa 0,0 l/m 0 min 0 min 0,0 UV-I 0 W/m 0,0 km/h (0 Bft)
10.07.2013 01:26 17,0 C 15,7 C 81 % 1022,3 hPa 0,0 l/m 0 min 0 min 0,0 UV-I 0 W/m 0,0 km/h (0 Bft)
10.07.2013 01:28 16,9 C 15,1 C 82 % 1022,3 hPa 0,0 l/m 0 min 0 min 0,0 UV-I 0 W/m 0,0 km/h (0 Bft)
10.07.2013 01:30 16,9 C 15,1 C 82 % 1022,3 hPa 0,0 l/m 0 min 0 min 0,0 UV-I 0 W/m 0,0 km/h (0 Bft)
10.07.2013 01:32 16,9 C 15,1 C 82 % 1022,3 hPa 0,0 l/m 0 min 0 min 0,0 UV-I 0 W/m 0,0 km/h (0 Bft)
10.07.2013 01:34 16,9 C 15,1 C 82 % 1022,3 hPa 0,0 l/m 0 min 0 min 0,0 UV-I 0 W/m 0,0 km/h (0 Bft)
10.07.2013 01:36 16,9 C 15,1 C 82 % 1022,4 hPa 0,0 l/m 0 min 0 min 0,0 UV-I 0 W/m 0,0 km/h (0 Bft)
10.07.2013 01:38 16,8 C 15,1 C 82 % 1022,3 hPa 0,0 l/m 0 min 0 min 0,0 UV-I 0 W/m 0,0 km/h (0 Bft)
10.07.2013 01:40 16,8 C 15,1 C 82 % 1022,4 hPa 0,0 l/m 0 min 0 min 0,0 UV-I 0 W/m 0,0 km/h (0 Bft)
10.07.2013 01:42 16,8 C 15,1 C 82 % 1022,4 hPa 0,0 l/m 0 min 0 min 0,0 UV-I 0 W/m 0,0 km/h (0 Bft)
10.07.2013 01:44 16,8 C 14,6 C 82 % 1022,3 hPa 0,0 l/m 0 min 0 min 0,0 UV-I 0 W/m 0,0 km/h (0 Bft)
10.07.2013 01:46 16,8 C 15,1 C 83 % 1022,3 hPa 0,0 l/m 0 min 0 min 0,0 UV-I 0 W/m 0,0 km/h (0 Bft)
10.07.2013 01:48 16,8 C 15,1 C 83 % 1022,4 hPa 0,0 l/m 0 min 0 min 0,0 UV-I 0 W/m 2,6 km/h (1 Bft)
10.07.2013 01:50 16,7 C 15,1 C 83 % 1022,4 hPa 0,0 l/m 0 min 0 min 0,0 UV-I 0 W/m 7,7 km/h (2 Bft)
10.07.2013 01:52 16,7 C 15,1 C 83 % 1022,2 hPa 0,0 l/m 0 min 0 min 0,0 UV-I 0 W/m 0,0 km/h (0 Bft)
10.07.2013 01:54 16,7 C 15,1 C 84 % 1022,3 hPa 0,0 l/m 0 min 0 min 0,0 UV-I 0 W/m 0,0 km/h (0 Bft)
10.07.2013 01:56 16,7 C 15,1 C 84 % 1022,3 hPa 0,0 l/m 0 min 0 min 0,0 UV-I 0 W/m 0,0 km/h (0 Bft)
10.07.2013 01:58 16,6 C 15,1 C 84 % 1022,3 hPa 0,0 l/m 0 min 0 min 0,0 UV-I 0 W/m 5,1 km/h (1 Bft)
10.07.2013 02:00 16,6 C 15,1 C 84 % 1022,3 hPa 0,0 l/m 0 min 0 min 0,0 UV-I 0 W/m 5,1 km/h (1 Bft)
10.07.2013 02:02 16,6 C 15,1 C 84 % 1022,3 hPa 0,0 l/m 0 min 0 min 0,0 UV-I 0 W/m 0,0 km/h (0 Bft)
10.07.2013 02:06 16,6 C 15,1 C 85 % 1022,2 hPa 0,0 l/m 0 min 0 min 0,0 UV-I 0 W/m 5,1 km/h (1 Bft)
10.07.2013 02:08 16,5 C 15,1 C 85 % 1022,3 hPa 0,0 l/m 0 min 0 min 0,0 UV-I 0 W/m 0,0 km/h (0 Bft)
10.07.2013 02:10 16,5 C 15,1 C 85 % 1022,3 hPa 0,0 l/m 0 min 0 min 0,0 UV-I 0 W/m 2,6 km/h (1 Bft)
10.07.2013 02:12 16,4 C 15,1 C 85 % 1022,3 hPa 0,0 l/m 0 min 0 min 0,0 UV-I 0 W/m 0,0 km/h (0 Bft)
10.07.2013 02:14 16,4 C 14,6 C 85 % 1022,3 hPa 0,0 l/m 0 min 0 min 0,0 UV-I 0 W/m 0,0 km/h (0 Bft)
10.07.2013 02:16 16,4 C 14,6 C 85 % 1022,3 hPa 0,0 l/m 0 min 0 min 0,0 UV-I 0 W/m 2,6 km/h (1 Bft)
10.07.2013 02:18 16,4 C 14,6 C 85 % 1022,4 hPa 0,0 l/m 0 min 0 min 0,0 UV-I 0 W/m 0,0 km/h (0 Bft)
10.07.2013 02:20 16,4 C 14,6 C 85 % 1022,4 hPa 0,0 l/m 0 min 0 min 0,0 UV-I 0 W/m 2,6 km/h (1 Bft)
10.07.2013 02:22 16,3 C 14,6 C 85 % 1022,4 hPa 0,0 l/m 0 min 0 min 0,0 UV-I 0 W/m 0,0 km/h (0 Bft)
10.07.2013 02:24 16,3 C 14,6 C 86 % 1022,5 hPa 0,0 l/m 0 min 0 min 0,0 UV-I 0 W/m 0,0 km/h (0 Bft)
10.07.2013 02:26 16,3 C 14,6 C 86 % 1022,4 hPa 0,0 l/m 0 min 0 min 0,0 UV-I 0 W/m 5,1 km/h (1 Bft)
10.07.2013 02:28 16,3 C 14,6 C 86 % 1022,4 hPa 0,0 l/m 0 min 0 min 0,0 UV-I 0 W/m 2,6 km/h (1 Bft)
10.07.2013 02:30 16,3 C 14,6 C 86 % 1022,4 hPa 0,0 l/m 0 min 0 min 0,0 UV-I 0 W/m 7,7 km/h (2 Bft)
10.07.2013 02:32 16,2 C 14,6 C 86 % 1022,3 hPa 0,0 l/m 0 min 0 min 0,0 UV-I 0 W/m 0,0 km/h (0 Bft)
10.07.2013 02:34 16,2 C 14,6 C 86 % 1022,3 hPa 0,0 l/m 0 min 0 min 0,0 UV-I 0 W/m 2,6 km/h (1 Bft)
10.07.2013 02:36 16,2 C 14,6 C 86 % 1022,2 hPa 0,0 l/m 0 min 0 min 0,0 UV-I 0 W/m 0,0 km/h (0 Bft)
10.07.2013 02:38 16,2 C 14,6 C 86 % 1022,3 hPa 0,0 l/m 0 min 0 min 0,0 UV-I 0 W/m 0,0 km/h (0 Bft)
10.07.2013 02:40 16,1 C 14,6 C 86 % 1022,3 hPa 0,0 l/m 0 min 0 min 0,0 UV-I 0 W/m 0,0 km/h (0 Bft)
10.07.2013 02:42 16,1 C 14,6 C 86 % 1022,3 hPa 0,0 l/m 0 min 0 min 0,0 UV-I 0 W/m 0,0 km/h (0 Bft)
10.07.2013 02:44 16,1 C 14,0 C 86 % 1022,3 hPa 0,0 l/m 0 min 0 min 0,0 UV-I 0 W/m 0,0 km/h (0 Bft)
10.07.2013 02:46 16,1 C 14,0 C 86 % 1022,2 hPa 0,0 l/m 0 min 0 min 0,0 UV-I 0 W/m 0,0 km/h (0 Bft)
10.07.2013 02:48 16,0 C 14,0 C 86 % 1022,2 hPa 0,0 l/m 0 min 0 min 0,0 UV-I 0 W/m 0,0 km/h (0 Bft)
10.07.2013 02:50 16,0 C 14,0 C 86 % 1022,2 hPa 0,0 l/m 0 min 0 min 0,0 UV-I 0 W/m 0,0 km/h (0 Bft)
10.07.2013 02:52 15,9 C 14,0 C 86 % 1022,2 hPa 0,0 l/m 0 min 0 min 0,0 UV-I 0 W/m 0,0 km/h (0 Bft)
10.07.2013 02:54 15,9 C 14,0 C 86 % 1022,2 hPa 0,0 l/m 0 min 0 min 0,0 UV-I 0 W/m 5,1 km/h (1 Bft)
10.07.2013 02:56 15,9 C 14,0 C 86 % 1022,3 hPa 0,0 l/m 0 min 0 min 0,0 UV-I 0 W/m 5,1 km/h (1 Bft)
10.07.2013 02:58 15,9 C 14,0 C 86 % 1022,3 hPa 0,0 l/m 0 min 0 min 0,0 UV-I 0 W/m 7,7 km/h (2 Bft)
10.07.2013 03:00 15,8 C 14,0 C 86 % 1022,3 hPa 0,0 l/m 0 min 0 min 0,0 UV-I 0 W/m 0,0 km/h (0 Bft)
10.07.2013 03:02 15,8 C 14,0 C 86 % 1022,2 hPa 0,0 l/m 0 min 0 min 0,0 UV-I 0 W/m 0,0 km/h (0 Bft)
10.07.2013 03:06 15,8 C 14,0 C 86 % 1022,2 hPa 0,0 l/m 0 min 0 min 0,0 UV-I 0 W/m 0,0 km/h (0 Bft)
10.07.2013 03:08 15,7 C 14,0 C 86 % 1022,2 hPa 0,0 l/m 0 min 0 min 0,0 UV-I 0 W/m 0,0 km/h (0 Bft)
10.07.2013 03:10 15,7 C 14,0 C 86 % 1022,2 hPa 0,0 l/m 0 min 0 min 0,0 UV-I 0 W/m 0,0 km/h (0 Bft)
10.07.2013 03:12 15,7 C 14,0 C 86 % 1022,2 hPa 0,0 l/m 0 min 0 min 0,0 UV-I 0 W/m 0,0 km/h (0 Bft)
10.07.2013 03:14 15,6 C 14,0 C 86 % 1022,2 hPa 0,0 l/m 0 min 0 min 0,0 UV-I 0 W/m 0,0 km/h (0 Bft)
10.07.2013 03:16 15,6 C 14,0 C 86 % 1022,2 hPa 0,0 l/m 0 min 0 min 0,0 UV-I 0 W/m 0,0 km/h (0 Bft)
10.07.2013 03:18 15,6 C 14,0 C 86 % 1022,2 hPa 0,0 l/m 0 min 0 min 0,0 UV-I 0 W/m 0,0 km/h (0 Bft)
10.07.2013 03:20 15,6 C 14,0 C 86 % 1022,1 hPa 0,0 l/m 0 min 0 min 0,0 UV-I 0 W/m 7,7 km/h (2 Bft)
10.07.2013 03:22 15,5 C 14,0 C 86 % 1022,1 hPa 0,0 l/m 0 min 0 min 0,0 UV-I 0 W/m 5,1 km/h (1 Bft)
10.07.2013 03:24 15,4 C 14,0 C 86 % 1022,1 hPa 0,0 l/m 0 min 0 min 0,0 UV-I 0 W/m 0,0 km/h (0 Bft)
10.07.2013 03:26 15,4 C 14,0 C 86 % 1022,1 hPa 0,0 l/m 0 min 0 min 0,0 UV-I 0 W/m 0,0 km/h (0 Bft)
10.07.2013 03:28 15,4 C 14,0 C 86 % 1022,1 hPa 0,0 l/m 0 min 0 min 0,0 UV-I 0 W/m 0,0 km/h (0 Bft)
10.07.2013 03:30 15,3 C 14,0 C 86 % 1022,0 hPa 0,0 l/m 0 min 0 min 0,0 UV-I 0 W/m 0,0 km/h (0 Bft)
10.07.2013 03:32 15,3 C 14,0 C 86 % 1022,0 hPa 0,0 l/m 0 min 0 min 0,0 UV-I 0 W/m 2,6 km/h (1 Bft)
10.07.2013 03:34 15,3 C 14,0 C 86 % 1022,1 hPa 0,0 l/m 0 min 0 min 0,0 UV-I 0 W/m 0,0 km/h (0 Bft)
10.07.2013 03:36 15,3 C 14,0 C 86 % 1022,0 hPa 0,0 l/m 0 min 0 min 0,0 UV-I 0 W/m 0,0 km/h (0 Bft)
10.07.2013 03:38 15,3 C 13,4 C 86 % 1022,1 hPa 0,0 l/m 0 min 0 min 0,0 UV-I 0 W/m 0,0 km/h (0 Bft)
10.07.2013 03:40 15,2 C 13,4 C 86 % 1022,0 hPa 0,0 l/m 0 min 0 min 0,0 UV-I 0 W/m 0,0 km/h (0 Bft)
10.07.2013 03:42 15,2 C 13,4 C 86 % 1022,0 hPa 0,0 l/m 0 min 0 min 0,0 UV-I 0 W/m 0,0 km/h (0 Bft)
10.07.2013 03:44 15,2 C 13,4 C 86 % 1022,0 hPa 0,0 l/m 0 min 0 min 0,0 UV-I 0 W/m 0,0 km/h (0 Bft)
10.07.2013 03:46 15,2 C 13,4 C 86 % 1022,0 hPa 0,0 l/m 0 min 0 min 0,0 UV-I 0 W/m 0,0 km/h (0 Bft)
10.07.2013 03:48 15,1 C 13,4 C 86 % 1022,1 hPa 0,0 l/m 0 min 0 min 0,0 UV-I 0 W/m 0,0 km/h (0 Bft)
10.07.2013 03:50 15,1 C 13,4 C 86 % 1022,1 hPa 0,0 l/m 0 min 0 min 0,0 UV-I 0 W/m 0,0 km/h (0 Bft)
10.07.2013 03:52 15,1 C 13,4 C 86 % 1022,0 hPa 0,0 l/m 0 min 0 min 0,0 UV-I 0 W/m 0,0 km/h (0 Bft)
10.07.2013 03:54 15,1 C 13,4 C 86 % 1022,1 hPa 0,0 l/m 0 min 0 min 0,0 UV-I 0 W/m 0,0 km/h (0 Bft)
10.07.2013 03:56 15,0 C 13,4 C 86 % 1022,0 hPa 0,0 l/m 0 min 0 min 0,0 UV-I 0 W/m 5,1 km/h (1 Bft)
10.07.2013 03:58 15,0 C 13,4 C 86 % 1022,0 hPa 0,0 l/m 0 min 0 min 0,0 UV-I 0 W/m 0,0 km/h (0 Bft)
10.07.2013 04:00 14,9 C 13,4 C 86 % 1022,1 hPa 0,0 l/m 0 min 0 min 0,0 UV-I 0 W/m 2,6 km/h (1 Bft)
10.07.2013 04:02 14,9 C 13,4 C 86 % 1022,1 hPa 0,0 l/m 0 min 0 min 0,0 UV-I 0 W/m 0,0 km/h (0 Bft)
10.07.2013 04:06 14,9 C 13,4 C 86 % 1022,0 hPa 0,0 l/m 0 min 0 min 0,0 UV-I 0 W/m 2,6 km/h (1 Bft)
10.07.2013 04:08 14,8 C 13,4 C 86 % 1021,9 hPa 0,0 l/m 0 min 0 min 0,0 UV-I 0 W/m 0,0 km/h (0 Bft)
10.07.2013 04:10 14,8 C 13,4 C 86 % 1021,9 hPa 0,0 l/m 0 min 0 min 0,0 UV-I 0 W/m 7,7 km/h (2 Bft)
10.07.2013 04:12 14,8 C 13,4 C 86 % 1022,0 hPa 0,0 l/m 0 min 0 min 0,0 UV-I 0 W/m 2,6 km/h (1 Bft)
10.07.2013 04:14 14,8 C 13,4 C 86 % 1022,0 hPa 0,0 l/m 0 min 0 min 0,0 UV-I 0 W/m 0,0 km/h (0 Bft)
10.07.2013 04:16 14,7 C 13,4 C 86 % 1022,1 hPa 0,0 l/m 0 min 0 min 0,0 UV-I 0 W/m 0,0 km/h (0 Bft)
10.07.2013 04:18 14,7 C 13,4 C 86 % 1022,0 hPa 0,0 l/m 0 min 0 min 0,0 UV-I 0 W/m 0,0 km/h (0 Bft)
10.07.2013 04:20 14,7 C 13,4 C 86 % 1022,0 hPa 0,0 l/m 0 min 0 min 0,0 UV-I 0 W/m 0,0 km/h (0 Bft)
10.07.2013 04:22 14,7 C 13,4 C 86 % 1022,0 hPa 0,0 l/m 0 min 0 min 0,0 UV-I 0 W/m 0,0 km/h (0 Bft)
10.07.2013 04:24 14,7 C 13,4 C 86 % 1022,0 hPa 0,0 l/m 0 min 0 min 0,0 UV-I 0 W/m 2,6 km/h (1 Bft)
10.07.2013 04:26 14,6 C 12,9 C 86 % 1022,0 hPa 0,0 l/m 0 min 0 min 0,0 UV-I 0 W/m 0,0 km/h (0 Bft)
10.07.2013 04:28 14,6 C 12,9 C 86 % 1022,0 hPa 0,0 l/m 0 min 0 min 0,0 UV-I 0 W/m 0,0 km/h (0 Bft)
10.07.2013 04:30 14,6 C 12,9 C 86 % 1021,9 hPa 0,0 l/m 0 min 0 min 0,0 UV-I 0 W/m 0,0 km/h (0 Bft)
10.07.2013 04:32 14,6 C 12,9 C 86 % 1022,0 hPa 0,0 l/m 0 min 0 min 0,0 UV-I 0 W/m 2,6 km/h (1 Bft)
10.07.2013 04:34 14,5 C 12,9 C 86 % 1021,9 hPa 0,0 l/m 0 min 0 min 0,0 UV-I 0 W/m 0,0 km/h (0 Bft)
10.07.2013 04:36 14,5 C 12,9 C 86 % 1021,9 hPa 0,0 l/m 0 min 0 min 0,0 UV-I 0 W/m 0,0 km/h (0 Bft)
10.07.2013 04:38 14,5 C 12,9 C 86 % 1021,9 hPa 0,0 l/m 0 min 0 min 0,0 UV-I 0 W/m 0,0 km/h (0 Bft)
10.07.2013 04:40 14,4 C 12,9 C 86 % 1021,9 hPa 0,0 l/m 0 min 0 min 0,0 UV-I 0 W/m 0,0 km/h (0 Bft)
10.07.2013 04:42 14,4 C 12,9 C 86 % 1022,0 hPa 0,0 l/m 0 min 0 min 0,0 UV-I 0 W/m 0,0 km/h (0 Bft)
10.07.2013 04:44 14,4 C 12,9 C 86 % 1021,9 hPa 0,0 l/m 0 min 0 min 0,0 UV-I 0 W/m 2,6 km/h (1 Bft)
10.07.2013 04:46 14,3 C 12,9 C 86 % 1021,8 hPa 0,0 l/m 0 min 0 min 0,0 UV-I 0 W/m 0,0 km/h (0 Bft)
10.07.2013 04:48 14,3 C 12,9 C 86 % 1021,9 hPa 0,0 l/m 0 min 0 min 0,0 UV-I 0 W/m 0,0 km/h (0 Bft)
10.07.2013 04:50 14,3 C 12,9 C 86 % 1021,8 hPa 0,0 l/m 0 min 0 min 0,0 UV-I 0 W/m 0,0 km/h (0 Bft)
10.07.2013 04:52 14,3 C 12,9 C 86 % 1021,7 hPa 0,0 l/m 0 min 0 min 0,0 UV-I 0 W/m 0,0 km/h (0 Bft)
10.07.2013 04:54 14,3 C 12,9 C 86 % 1021,8 hPa 0,0 l/m 0 min 0 min 0,0 UV-I 0 W/m 0,0 km/h (0 Bft)
10.07.2013 04:56 14,2 C 12,3 C 86 % 1021,8 hPa 0,0 l/m 0 min 0 min 0,0 UV-I 0 W/m 0,0 km/h (0 Bft)
10.07.2013 04:58 14,2 C 12,3 C 86 % 1021,9 hPa 0,0 l/m 0 min 0 min 0,0 UV-I 0 W/m 0,0 km/h (0 Bft)
10.07.2013 05:00 14,2 C 12,3 C 86 % 1021,8 hPa 0,0 l/m 0 min 0 min 0,0 UV-I 0 W/m 0,0 km/h (0 Bft)
10.07.2013 05:02 14,1 C 12,3 C 86 % 1021,7 hPa 0,0 l/m 0 min 0 min 0,0 UV-I 0 W/m 0,0 km/h (0 Bft)
10.07.2013 05:06 14,0 C 12,3 C 86 % 1021,8 hPa 0,0 l/m 0 min 0 min 0,0 UV-I 0 W/m 0,0 km/h (0 Bft)
10.07.2013 05:08 14,0 C 12,3 C 86 % 1021,7 hPa 0,0 l/m 0 min 0 min 0,0 UV-I 0 W/m 0,0 km/h (0 Bft)
10.07.2013 05:10 14,0 C 12,3 C 86 % 1021,7 hPa 0,0 l/m 0 min 0 min 0,0 UV-I 0 W/m 0,0 km/h (0 Bft)
10.07.2013 05:12 14,0 C 12,3 C 87 % 1021,7 hPa 0,0 l/m 0 min 0 min 0,0 UV-I 0 W/m 0,0 km/h (0 Bft)
10.07.2013 05:14 14,0 C 12,3 C 87 % 1021,8 hPa 0,0 l/m 0 min 0 min 0,0 UV-I 0 W/m 0,0 km/h (0 Bft)
10.07.2013 05:16 14,0 C 12,3 C 87 % 1021,8 hPa 0,0 l/m 0 min 0 min 0,0 UV-I 0 W/m 0,0 km/h (0 Bft)
10.07.2013 05:18 14,0 C 12,3 C 87 % 1021,7 hPa 0,0 l/m 0 min 0 min 0,0 UV-I 0 W/m 0,0 km/h (0 Bft)
10.07.2013 05:20 14,0 C 12,3 C 87 % 1021,7 hPa 0,0 l/m 0 min 0 min 0,0 UV-I 0 W/m 0,0 km/h (0 Bft)
10.07.2013 05:22 14,0 C 12,3 C 87 % 1021,7 hPa 0,0 l/m 0 min 0 min 0,0 UV-I 0 W/m 0,0 km/h (0 Bft)
10.07.2013 05:24 14,0 C 12,3 C 87 % 1021,7 hPa 0,0 l/m 0 min 0 min 0,0 UV-I 0 W/m 0,0 km/h (0 Bft)
10.07.2013 05:26 13,9 C 12,3 C 87 % 1021,7 hPa 0,0 l/m 0 min 0 min 0,0 UV-I 0 W/m 0,0 km/h (0 Bft)
10.07.2013 05:28 13,9 C 12,3 C 87 % 1021,8 hPa 0,0 l/m 0 min 0 min 0,0 UV-I 0 W/m 0,0 km/h (0 Bft)
10.07.2013 05:30 13,9 C 12,3 C 87 % 1021,9 hPa 0,0 l/m 0 min 0 min 0,0 UV-I 0 W/m 0,0 km/h (0 Bft)
10.07.2013 05:32 13,8 C 12,3 C 87 % 1021,9 hPa 0,0 l/m 0 min 0 min 0,0 UV-I 5 W/m 0,0 km/h (0 Bft)
10.07.2013 05:34 13,8 C 12,3 C 88 % 1021,9 hPa 0,0 l/m 0 min 0 min 0,0 UV-I 5 W/m 0,0 km/h (0 Bft)
10.07.2013 05:36 13,8 C 12,3 C 88 % 1021,9 hPa 0,0 l/m 0 min 0 min 0,0 UV-I 5 W/m 0,0 km/h (0 Bft)
10.07.2013 05:38 13,8 C 12,3 C 88 % 1021,9 hPa 0,0 l/m 0 min 0 min 0,0 UV-I 7 W/m 0,0 km/h (0 Bft)
10.07.2013 05:40 13,8 C 12,3 C 88 % 1021,9 hPa 0,0 l/m 0 min 0 min 0,0 UV-I 7 W/m 0,0 km/h (0 Bft)
10.07.2013 05:42 13,8 C 12,3 C 88 % 1021,9 hPa 0,0 l/m 0 min 0 min 0,0 UV-I 7 W/m 2,6 km/h (1 Bft)
10.07.2013 05:44 13,7 C 12,3 C 88 % 1021,9 hPa 0,0 l/m 0 min 0 min 0,0 UV-I 9 W/m 0,0 km/h (0 Bft)
10.07.2013 05:46 13,7 C 12,3 C 88 % 1021,9 hPa 0,0 l/m 0 min 0 min 0,0 UV-I 9 W/m 0,0 km/h (0 Bft)
10.07.2013 05:51 13,7 C 12,3 C 88 % 1021,8 hPa 0,0 l/m 0 min 0 min 0,0 UV-I 9 W/m 0,0 km/h (0 Bft)
10.07.2013 05:52 13,7 C 12,3 C 88 % 1021,8 hPa 0,0 l/m 0 min 0 min 0,0 UV-I 9 W/m 0,0 km/h (0 Bft)
10.07.2013 05:54 13,7 C 12,3 C 88 % 1021,8 hPa 0,0 l/m 0 min 0 min 0,0 UV-I 9 W/m 0,0 km/h (0 Bft)
10.07.2013 05:56 13,7 C 12,3 C 88 % 1021,8 hPa 0,0 l/m 0 min 0 min 0,0 UV-I 9 W/m 0,0 km/h (0 Bft)
10.07.2013 05:58 13,7 C 12,3 C 88 % 1021,8 hPa 0,0 l/m 0 min 0 min 0,0 UV-I 9 W/m 0,0 km/h (0 Bft)
10.07.2013 06:00 13,7 C 12,3 C 88 % 1021,8 hPa 0,0 l/m 0 min 0 min 0,0 UV-I 9 W/m 0,0 km/h (0 Bft)
10.07.2013 06:02 13,7 C 12,3 C 90 % 1022,0 hPa 0,0 l/m 0 min 0 min 0,0 UV-I 16 W/m 0,0 km/h (0 Bft)
10.07.2013 06:06 13,7 C 12,3 C 90 % 1021,9 hPa 0,0 l/m 0 min 0 min 0,0 UV-I 18 W/m 2,6 km/h (1 Bft)
10.07.2013 06:08 13,7 C 12,3 C 90 % 1022,0 hPa 0,0 l/m 0 min 0 min 0,0 UV-I 19 W/m 2,6 km/h (1 Bft)
10.07.2013 06:10 13,7 C 12,3 C 90 % 1022,0 hPa 0,0 l/m 0 min 0 min 0,0 UV-I 19 W/m 2,6 km/h (1 Bft)
10.07.2013 06:12 13,7 C 12,9 C 90 % 1022,0 hPa 0,0 l/m 0 min 0 min 0,0 UV-I 21 W/m 7,7 km/h (2 Bft)
10.07.2013 06:14 13,7 C 12,9 C 91 % 1021,9 hPa 0,0 l/m 0 min 0 min 0,0 UV-I 21 W/m 5,1 km/h (1 Bft)
10.07.2013 06:16 13,7 C 12,9 C 91 % 1021,9 hPa 0,0 l/m 0 min 0 min 0,0 UV-I 23 W/m 2,6 km/h (1 Bft)
10.07.2013 06:18 13,7 C 12,9 C 91 % 1021,8 hPa 0,0 l/m 0 min 0 min 0,0 UV-I 23 W/m 0,0 km/h (0 Bft)
10.07.2013 06:20 13,7 C 12,9 C 91 % 1021,9 hPa 0,0 l/m 0 min 0 min 0,0 UV-I 25 W/m 0,0 km/h (0 Bft)
10.07.2013 06:22 13,7 C 12,9 C 91 % 1021,8 hPa 0,0 l/m 0 min 0 min 0,0 UV-I 25 W/m 2,6 km/h (1 Bft)
10.07.2013 06:24 13,7 C 12,9 C 91 % 1021,8 hPa 0,0 l/m 0 min 0 min 0,0 UV-I 26 W/m 0,0 km/h (0 Bft)
10.07.2013 06:26 13,7 C 12,9 C 91 % 1021,8 hPa 0,0 l/m 0 min 0 min 0,0 UV-I 28 W/m 2,6 km/h (1 Bft)
10.07.2013 06:28 13,8 C 12,9 C 91 % 1021,9 hPa 0,0 l/m 0 min 0 min 0,0 UV-I 28 W/m 0,0 km/h (0 Bft)
10.07.2013 06:30 13,8 C 12,9 C 91 % 1021,8 hPa 0,0 l/m 0 min 0 min 0,0 UV-I 30 W/m 0,0 km/h (0 Bft)
10.07.2013 06:32 13,8 C 12,9 C 91 % 1021,8 hPa 0,0 l/m 0 min 0 min 0,0 UV-I 30 W/m 0,0 km/h (0 Bft)
10.07.2013 06:34 13,8 C 12,9 C 91 % 1021,8 hPa 0,0 l/m 0 min 0 min 0,0 UV-I 32 W/m 0,0 km/h (0 Bft)
10.07.2013 06:36 13,8 C 12,9 C 92 % 1021,9 hPa 0,0 l/m 0 min 0 min 0,0 UV-I 33 W/m 2,6 km/h (1 Bft)
10.07.2013 06:38 13,8 C 12,9 C 92 % 1021,9 hPa 0,0 l/m 0 min 0 min 0,0 UV-I 33 W/m 0,0 km/h (0 Bft)
10.07.2013 06:40 13,8 C 12,9 C 92 % 1022,0 hPa 0,0 l/m 0 min 0 min 0,0 UV-I 33 W/m 2,6 km/h (1 Bft)
10.07.2013 06:42 13,8 C 12,9 C 92 % 1022,0 hPa 0,0 l/m 0 min 0 min 0,0 UV-I 35 W/m 0,0 km/h (0 Bft)
10.07.2013 06:44 13,8 C 12,9 C 92 % 1021,9 hPa 0,0 l/m 0 min 0 min 0,0 UV-I 37 W/m 0,0 km/h (0 Bft)
10.07.2013 06:46 13,8 C 12,9 C 92 % 1022,0 hPa 0,0 l/m 0 min 0 min 0,0 UV-I 37 W/m 2,6 km/h (1 Bft)
10.07.2013 06:48 13,8 C 12,9 C 92 % 1022,0 hPa 0,0 l/m 0 min 0 min 0,0 UV-I 39 W/m 0,0 km/h (0 Bft)
10.07.2013 06:50 13,8 C 12,9 C 92 % 1022,0 hPa 0,0 l/m 0 min 0 min 0,0 UV-I 40 W/m 0,0 km/h (0 Bft)
10.07.2013 06:52 13,8 C 12,9 C 92 % 1022,0 hPa 0,0 l/m 0 min 0 min 0,0 UV-I 40 W/m 0,0 km/h (0 Bft)
10.07.2013 06:54 13,9 C 12,9 C 92 % 1022,1 hPa 0,0 l/m 0 min 0 min 0,0 UV-I 42 W/m 2,6 km/h (1 Bft)
10.07.2013 06:56 13,9 C 13,4 C 92 % 1022,0 hPa 0,0 l/m 0 min 0 min 0,0 UV-I 44 W/m 0,0 km/h (0 Bft)
10.07.2013 06:58 13,9 C 13,4 C 92 % 1022,0 hPa 0,0 l/m 0 min 0 min 0,0 UV-I 44 W/m 0,0 km/h (0 Bft)
10.07.2013 07:00 13,9 C 13,4 C 92 % 1022,0 hPa 0,0 l/m 0 min 0 min 0,0 UV-I 46 W/m 2,6 km/h (1 Bft)
10.07.2013 07:02 14,0 C 13,4 C 92 % 1022,0 hPa 0,0 l/m 0 min 0 min 0,0 UV-I 47 W/m 2,6 km/h (1 Bft)
10.07.2013 07:06 14,0 C 13,4 C 93 % 1021,9 hPa 0,0 l/m 0 min 0 min 0,0 UV-I 49 W/m 10,3 km/h (2 Bft)
10.07.2013 07:08 14,0 C 13,4 C 93 % 1021,9 hPa 0,0 l/m 0 min 0 min 0,0 UV-I 51 W/m 12,9 km/h (3 Bft)
10.07.2013 07:10 14,0 C 13,4 C 93 % 1021,9 hPa 0,0 l/m 0 min 0 min 0,0 UV-I 53 W/m 10,3 km/h (2 Bft)
10.07.2013 07:12 14,1 C 13,4 C 93 % 1021,9 hPa 0,0 l/m 0 min 0 min 0,0 UV-I 53 W/m 10,3 km/h (2 Bft)
10.07.2013 07:17 14,1 C 13,4 C 93 % 1021,8 hPa 0,0 l/m 0 min 0 min 0,0 UV-I 54 W/m 10,3 km/h (2 Bft)
10.07.2013 07:18 14,1 C 13,4 C 93 % 1021,8 hPa 0,0 l/m 0 min 0 min 0,0 UV-I 54 W/m 0,0 km/h (0 Bft)
10.07.2013 07:20 14,1 C 13,4 C 93 % 1021,8 hPa 0,0 l/m 0 min 0 min 0,0 UV-I 54 W/m 0,0 km/h (0 Bft)
10.07.2013 07:22 14,1 C 13,4 C 93 % 1021,8 hPa 0,0 l/m 0 min 0 min 0,0 UV-I 54 W/m 0,0 km/h (0 Bft)
10.07.2013 07:24 14,1 C 13,4 C 93 % 1021,8 hPa 0,0 l/m 0 min 0 min 0,0 UV-I 54 W/m 0,0 km/h (0 Bft)
10.07.2013 07:26 14,3 C 13,4 C 93 % 1021,9 hPa 0,0 l/m 0 min 0 min 0,0 UV-I 63 W/m 5,1 km/h (1 Bft)
10.07.2013 07:28 14,4 C 13,4 C 94 % 1021,9 hPa 0,0 l/m 0 min 0 min 0,0 UV-I 63 W/m 5,1 km/h (1 Bft)
10.07.2013 07:30 14,4 C 14,0 C 94 % 1021,8 hPa 0,0 l/m 0 min 0 min 0,0 UV-I 65 W/m 2,6 km/h (1 Bft)
10.07.2013 07:32 14,4 C 14,0 C 94 % 1021,8 hPa 0,0 l/m 0 min 0 min 0,0 UV-I 65 W/m 2,6 km/h (1 Bft)
10.07.2013 07:34 14,5 C 14,0 C 94 % 1021,8 hPa 0,0 l/m 0 min 0 min 0,0 UV-I 67 W/m 10,3 km/h (2 Bft)
10.07.2013 07:36 14,6 C 14,0 C 94 % 1021,8 hPa 0,0 l/m 0 min 0 min 0,0 UV-I 67 W/m 5,1 km/h (1 Bft)
10.07.2013 07:38 14,6 C 14,6 C 94 % 1021,8 hPa 0,0 l/m 0 min 0 min 0,0 UV-I 67 W/m 7,7 km/h (2 Bft)
10.07.2013 07:40 14,6 C 14,6 C 94 % 1021,8 hPa 0,0 l/m 0 min 0 min 0,0 UV-I 69 W/m 7,7 km/h (2 Bft)
10.07.2013 07:42 14,7 C 14,6 C 94 % 1021,8 hPa 0,0 l/m 0 min 0 min 0,0 UV-I 70 W/m 10,3 km/h (2 Bft)
10.07.2013 07:44 14,7 C 14,6 C 94 % 1021,9 hPa 0,0 l/m 0 min 0 min 0,0 UV-I 70 W/m 10,3 km/h (2 Bft)
10.07.2013 07:46 14,7 C 14,6 C 94 % 1021,8 hPa 0,0 l/m 0 min 0 min 0,0 UV-I 70 W/m 10,3 km/h (2 Bft)
10.07.2013 07:48 14,8 C 14,6 C 94 % 1021,8 hPa 0,0 l/m 0 min 0 min 0,0 UV-I 72 W/m 10,3 km/h (2 Bft)
10.07.2013 07:50 14,8 C 14,6 C 94 % 1021,9 hPa 0,0 l/m 0 min 0 min 0,0 UV-I 74 W/m 10,3 km/h (2 Bft)
10.07.2013 07:52 14,8 C 14,6 C 94 % 1022,0 hPa 0,0 l/m 0 min 0 min 0,0 UV-I 76 W/m 12,9 km/h (3 Bft)
10.07.2013 07:54 14,8 C 14,6 C 94 % 1022,0 hPa 0,0 l/m 0 min 0 min 0,0 UV-I 76 W/m 15,4 km/h (3 Bft)
10.07.2013 07:56 14,9 C 14,6 C 94 % 1022,0 hPa 0,0 l/m 0 min 0 min 0,0 UV-I 77 W/m 10,3 km/h (2 Bft)
10.07.2013 07:58 14,9 C 14,6 C 94 % 1022,0 hPa 0,0 l/m 2 min 0 min 0,0 UV-I 185 W/m 10,3 km/h (2 Bft)
10.07.2013 08:00 15,0 C 14,6 C 93 % 1022,0 hPa 0,0 l/m 2 min 0 min 0,0 UV-I 232 W/m 7,7 km/h (2 Bft)
10.07.2013 08:02 15,1 C 15,1 C 93 % 1022,0 hPa 0,0 l/m 2 min 0 min 0,0 UV-I 232 W/m 5,1 km/h (1 Bft)
10.07.2013 08:06 15,1 C 14,6 C 93 % 1022,0 hPa 0,0 l/m 2 min 0 min 0,0 UV-I 250 W/m 18,0 km/h (3 Bft)
10.07.2013 08:08 15,2 C 14,6 C 93 % 1022,0 hPa 0,0 l/m 2 min 0 min 0,0 UV-I 257 W/m 15,4 km/h (3 Bft)
10.07.2013 08:10 15,2 C 15,1 C 93 % 1022,1 hPa 0,0 l/m 2 min 0 min 0,0 UV-I 262 W/m 12,9 km/h (3 Bft)
10.07.2013 08:12 15,2 C 15,1 C 93 % 1022,1 hPa 0,0 l/m 2 min 0 min 0,0 UV-I 267 W/m 15,4 km/h (3 Bft)
10.07.2013 08:14 15,3 C 15,1 C 93 % 1022,1 hPa 0,0 l/m 2 min 0 min 0,0 UV-I 272 W/m 7,7 km/h (2 Bft)
10.07.2013 08:16 15,3 C 15,1 C 93 % 1022,1 hPa 0,0 l/m 2 min 0 min 0,0 UV-I 279 W/m 2,6 km/h (1 Bft)
10.07.2013 08:18 15,4 C 15,1 C 93 % 1022,1 hPa 0,0 l/m 2 min 0 min 0,0 UV-I 283 W/m 0,0 km/h (0 Bft)
10.07.2013 08:20 15,4 C 15,1 C 92 % 1022,1 hPa 0,0 l/m 2 min 0 min 0,0 UV-I 288 W/m 12,9 km/h (3 Bft)
10.07.2013 08:22 15,5 C 15,1 C 92 % 1022,1 hPa 0,0 l/m 2 min 0 min 0,0 UV-I 295 W/m 12,9 km/h (3 Bft)
10.07.2013 08:24 15,5 C 15,7 C 92 % 1022,1 hPa 0,0 l/m 2 min 0 min 0,0 UV-I 299 W/m 12,9 km/h (3 Bft)
10.07.2013 08:26 15,6 C 15,7 C 92 % 1022,1 hPa 0,0 l/m 2 min 0 min 0,0 UV-I 304 W/m 15,4 km/h (3 Bft)
10.07.2013 08:28 15,6 C 15,7 C 92 % 1022,1 hPa 0,0 l/m 2 min 0 min 0,0 UV-I 315 W/m 12,9 km/h (3 Bft)
10.07.2013 08:30 15,7 C 15,7 C 91 % 1022,1 hPa 0,0 l/m 2 min 0 min 0,0 UV-I 316 W/m 10,3 km/h (2 Bft)
10.07.2013 08:32 15,7 C 15,7 C 91 % 1022,1 hPa 0,0 l/m 2 min 0 min 0,0 UV-I 322 W/m 12,9 km/h (3 Bft)
10.07.2013 08:34 15,8 C 15,7 C 91 % 1022,0 hPa 0,0 l/m 2 min 0 min 0,0 UV-I 329 W/m 10,3 km/h (2 Bft)
10.07.2013 08:36 15,8 C 15,7 C 91 % 1022,1 hPa 0,0 l/m 2 min 0 min 0,0 UV-I 332 W/m 7,7 km/h (2 Bft)
10.07.2013 08:38 15,9 C 15,7 C 90 % 1022,1 hPa 0,0 l/m 2 min 0 min 0,0 UV-I 334 W/m 18,0 km/h (3 Bft)
10.07.2013 08:40 16,0 C 15,7 C 90 % 1022,1 hPa 0,0 l/m 2 min 0 min 0,0 UV-I 343 W/m 7,7 km/h (2 Bft)
10.07.2013 08:42 16,1 C 16,2 C 90 % 1022,0 hPa 0,0 l/m 2 min 0 min 0,0 UV-I 341 W/m 10,3 km/h (2 Bft)
10.07.2013 08:44 16,2 C 16,2 C 89 % 1022,1 hPa 0,0 l/m 2 min 0 min 0,5 UV-I 352 W/m 10,3 km/h (2 Bft)
10.07.2013 08:46 16,3 C 16,2 C 89 % 1022,1 hPa 0,0 l/m 2 min 0 min 0,5 UV-I 362 W/m 12,9 km/h (3 Bft)
10.07.2013 08:48 16,3 C 16,2 C 89 % 1022,0 hPa 0,0 l/m 2 min 0 min 0,6 UV-I 366 W/m 12,9 km/h (3 Bft)
10.07.2013 08:50 16,4 C 16,2 C 88 % 1022,1 hPa 0,0 l/m 2 min 0 min 0,6 UV-I 371 W/m 15,4 km/h (3 Bft)
10.07.2013 08:52 16,5 C 16,8 C 87 % 1022,1 hPa 0,0 l/m 2 min 0 min 0,6 UV-I 378 W/m 10,3 km/h (2 Bft)
10.07.2013 08:54 16,6 C 16,8 C 86 % 1022,1 hPa 0,0 l/m 2 min 0 min 0,6 UV-I 381 W/m 10,3 km/h (2 Bft)
10.07.2013 08:56 16,7 C 16,8 C 85 % 1022,1 hPa 0,0 l/m 2 min 0 min 0,7 UV-I 381 W/m 12,9 km/h (3 Bft)
10.07.2013 08:58 16,8 C 16,8 C 85 % 1022,0 hPa 0,0 l/m 2 min 0 min 0,7 UV-I 388 W/m 10,3 km/h (2 Bft)
10.07.2013 09:00 16,9 C 16,8 C 83 % 1022,1 hPa 0,0 l/m 2 min 0 min 0,7 UV-I 396 W/m 10,3 km/h (2 Bft)
10.07.2013 09:02 17,1 C 16,8 C 82 % 1022,1 hPa 0,0 l/m 2 min 0 min 0,8 UV-I 401 W/m 10,3 km/h (2 Bft)
10.07.2013 09:06 17,3 C 17,3 C 81 % 1022,1 hPa 0,0 l/m 2 min 0 min 0,8 UV-I 406 W/m 12,9 km/h (3 Bft)
10.07.2013 09:08 17,4 C 17,3 C 81 % 1022,0 hPa 0,0 l/m 2 min 0 min 0,8 UV-I 415 W/m 2,6 km/h (1 Bft)
10.07.2013 09:10 17,6 C 17,3 C 79 % 1022,0 hPa 0,0 l/m 2 min 0 min 0,9 UV-I 418 W/m 18,0 km/h (3 Bft)
10.07.2013 09:12 17,7 C 17,3 C 78 % 1022,0 hPa 0,0 l/m 2 min 0 min 0,9 UV-I 424 W/m 12,9 km/h (3 Bft)
10.07.2013 09:14 17,7 C 17,3 C 77 % 1022,0 hPa 0,0 l/m 2 min 0 min 1,0 UV-I 432 W/m 10,3 km/h (2 Bft)
10.07.2013 09:16 17,8 C 17,3 C 77 % 1022,0 hPa 0,0 l/m 2 min 0 min 1,0 UV-I 434 W/m 7,7 km/h (2 Bft)
10.07.2013 09:18 17,9 C 17,9 C 76 % 1022,0 hPa 0,0 l/m 2 min 0 min 1,0 UV-I 434 W/m 7,7 km/h (2 Bft)
10.07.2013 09:20 17,9 C 17,9 C 75 % 1022,0 hPa 0,0 l/m 2 min 0 min 1,1 UV-I 445 W/m 2,6 km/h (1 Bft)
10.07.2013 09:22 18,1 C 17,9 C 75 % 1022,0 hPa 0,0 l/m 2 min 0 min 1,1 UV-I 446 W/m 15,4 km/h (3 Bft)
10.07.2013 09:24 18,2 C 17,9 C 74 % 1021,9 hPa 0,0 l/m 2 min 0 min 1,1 UV-I 452 W/m 12,9 km/h (3 Bft)
10.07.2013 09:26 18,3 C 17,9 C 73 % 1021,9 hPa 0,0 l/m 2 min 0 min 1,2 UV-I 464 W/m 15,4 km/h (3 Bft)
10.07.2013 09:28 18,4 C 17,9 C 74 % 1021,9 hPa 0,0 l/m 2 min 0 min 1,2 UV-I 464 W/m 12,9 km/h (3 Bft)
10.07.2013 09:30 18,5 C 18,4 C 73 % 1022,0 hPa 0,0 l/m 2 min 0 min 1,2 UV-I 468 W/m 5,1 km/h (1 Bft)
10.07.2013 09:32 18,6 C 17,9 C 72 % 1021,9 hPa 0,0 l/m 2 min 0 min 1,3 UV-I 476 W/m 18,0 km/h (3 Bft)
10.07.2013 09:34 18,7 C 17,9 C 71 % 1022,0 hPa 0,0 l/m 2 min 0 min 1,3 UV-I 482 W/m 20,6 km/h (4 Bft)
10.07.2013 09:36 18,8 C 18,4 C 72 % 1022,0 hPa 0,0 l/m 2 min 0 min 1,4 UV-I 483 W/m 10,3 km/h (2 Bft)
10.07.2013 09:38 18,8 C 18,4 C 70 % 1022,1 hPa 0,0 l/m 2 min 0 min 1,4 UV-I 490 W/m 18,0 km/h (3 Bft)
10.07.2013 09:40 18,8 C 18,4 C 70 % 1022,1 hPa 0,0 l/m 2 min 0 min 1,4 UV-I 496 W/m 15,4 km/h (3 Bft)
10.07.2013 09:42 18,9 C 18,4 C 70 % 1022,1 hPa 0,0 l/m 2 min 0 min 1,4 UV-I 494 W/m 12,9 km/h (3 Bft)
10.07.2013 09:44 19,0 C 18,4 C 69 % 1022,0 hPa 0,0 l/m 2 min 0 min 1,5 UV-I 503 W/m 15,4 km/h (3 Bft)
10.07.2013 09:46 19,0 C 18,4 C 69 % 1022,0 hPa 0,0 l/m 2 min 0 min 1,5 UV-I 506 W/m 20,6 km/h (4 Bft)
10.07.2013 09:48 19,1 C 18,4 C 68 % 1022,1 hPa 0,0 l/m 2 min 0 min 1,6 UV-I 506 W/m 15,4 km/h (3 Bft)
10.07.2013 09:50 19,1 C 19,0 C 68 % 1022,1 hPa 0,0 l/m 2 min 0 min 1,6 UV-I 512 W/m 12,9 km/h (3 Bft)
10.07.2013 09:52 19,2 C 18,4 C 68 % 1022,1 hPa 0,0 l/m 2 min 0 min 1,6 UV-I 508 W/m 20,6 km/h (4 Bft)
10.07.2013 09:54 19,3 C 19,0 C 68 % 1022,1 hPa 0,0 l/m 2 min 0 min 1,6 UV-I 508 W/m 10,3 km/h (2 Bft)
10.07.2013 09:56 19,3 C 19,6 C 68 % 1022,2 hPa 0,0 l/m 2 min 0 min 1,7 UV-I 527 W/m 12,9 km/h (3 Bft)
10.07.2013 09:58 19,4 C 20,1 C 68 % 1022,2 hPa 0,0 l/m 2 min 0 min 1,7 UV-I 517 W/m 10,3 km/h (2 Bft)
10.07.2013 10:00 19,5 C 20,7 C 67 % 1022,2 hPa 0,0 l/m 2 min 0 min 1,8 UV-I 529 W/m 18,0 km/h (3 Bft)
10.07.2013 10:02 19,6 C 21,8 C 67 % 1022,2 hPa 0,0 l/m 2 min 0 min 1,8 UV-I 519 W/m 15,4 km/h (3 Bft)
10.07.2013 10:06 19,7 C 22,9 C 67 % 1022,2 hPa 0,0 l/m 2 min 0 min 1,9 UV-I 547 W/m 12,9 km/h (3 Bft)
10.07.2013 10:08 19,8 C 24,0 C 68 % 1022,2 hPa 0,0 l/m 2 min 0 min 1,9 UV-I 552 W/m 10,3 km/h (2 Bft)
10.07.2013 10:10 19,9 C 24,6 C 67 % 1022,1 hPa 0,0 l/m 2 min 0 min 2,0 UV-I 555 W/m 20,6 km/h (4 Bft)
10.07.2013 10:12 19,9 C 24,6 C 66 % 1022,2 hPa 0,0 l/m 2 min 0 min 2,0 UV-I 561 W/m 15,4 km/h (3 Bft)
10.07.2013 10:14 20,0 C 24,6 C 66 % 1022,1 hPa 0,0 l/m 2 min 0 min 2,1 UV-I 570 W/m 18,0 km/h (3 Bft)
10.07.2013 10:16 20,1 C 24,6 C 66 % 1022,1 hPa 0,0 l/m 2 min 0 min 2,1 UV-I 571 W/m 18,0 km/h (3 Bft)
10.07.2013 10:18 20,1 C 24,6 C 66 % 1022,1 hPa 0,0 l/m 2 min 0 min 2,2 UV-I 575 W/m 15,4 km/h (3 Bft)
10.07.2013 10:20 20,2 C 24,6 C 66 % 1022,1 hPa 0,0 l/m 2 min 0 min 2,2 UV-I 578 W/m 23,2 km/h (4 Bft)
10.07.2013 10:21 20,2 C 24,0 C 65 % 1022,2 hPa 0,0 l/m 1 min 0 min 2,2 UV-I 582 W/m 23,2 km/h (4 Bft)
10.07.2013 10:22 20,2 C 24,0 C 65 % 1022,1 hPa 0,0 l/m 1 min 0 min 2,2 UV-I 585 W/m 18,0 km/h (3 Bft)
10.07.2013 10:23 20,2 C 24,0 C 65 % 1022,1 hPa 0,0 l/m 1 min 0 min 2,2 UV-I 585 W/m 18,0 km/h (3 Bft)
10.07.2013 10:24 20,2 C 24,0 C 65 % 1022,2 hPa 0,0 l/m 1 min 0 min 2,3 UV-I 589 W/m 18,0 km/h (3 Bft)
10.07.2013 10:25 20,2 C 24,6 C 65 % 1022,1 hPa 0,0 l/m 1 min 0 min 2,3 UV-I 596 W/m 10,3 km/h (2 Bft)
10.07.2013 10:26 20,2 C 25,1 C 66 % 1022,0 hPa 0,0 l/m 1 min 0 min 2,3 UV-I 598 W/m 12,9 km/h (3 Bft)
10.07.2013 10:27 20,2 C 25,7 C 66 % 1022,0 hPa 0,0 l/m 1 min 0 min 2,3 UV-I 599 W/m 7,7 km/h (2 Bft)
10.07.2013 10:28 20,2 C 25,7 C 67 % 1022,1 hPa 0,0 l/m 1 min 0 min 2,4 UV-I 601 W/m 7,7 km/h (2 Bft)
10.07.2013 10:29 20,3 C 25,7 C 67 % 1022,0 hPa 0,0 l/m 1 min 0 min 2,4 UV-I 605 W/m 18,0 km/h (3 Bft)
10.07.2013 10:30 20,3 C 26,8 C 67 % 1022,1 hPa 0,0 l/m 1 min 0 min 2,4 UV-I 608 W/m 10,3 km/h (2 Bft)
10.07.2013 10:31 20,3 C 26,8 C 67 % 1022,1 hPa 0,0 l/m 1 min 0 min 2,4 UV-I 608 W/m 10,3 km/h (2 Bft)
10.07.2013 10:32 20,3 C 27,3 C 68 % 1022,1 hPa 0,0 l/m 1 min 0 min 2,5 UV-I 612 W/m 10,3 km/h (2 Bft)
10.07.2013 10:33 20,4 C 26,8 C 67 % 1022,1 hPa 0,0 l/m 1 min 0 min 2,5 UV-I 612 W/m 12,9 km/h (3 Bft)
10.07.2013 10:34 20,4 C 26,8 C 68 % 1022,1 hPa 0,0 l/m 1 min 0 min 2,5 UV-I 615 W/m 5,1 km/h (1 Bft)
10.07.2013 10:35 20,4 C 26,8 C 68 % 1022,1 hPa 0,0 l/m 1 min 0 min 2,5 UV-I 613 W/m 12,9 km/h (3 Bft)
10.07.2013 10:36 20,5 C 26,2 C 67 % 1022,1 hPa 0,0 l/m 1 min 0 min 2,5 UV-I 621 W/m 15,4 km/h (3 Bft)
10.07.2013 10:37 20,5 C 25,7 C 67 % 1022,1 hPa 0,0 l/m 1 min 0 min 2,6 UV-I 619 W/m 10,3 km/h (2 Bft)
10.07.2013 10:38 20,6 C 26,2 C 67 % 1022,1 hPa 0,0 l/m 1 min 0 min 2,6 UV-I 622 W/m 0,0 km/h (0 Bft)
10.07.2013 10:39 20,6 C 26,2 C 67 % 1022,0 hPa 0,0 l/m 1 min 0 min 2,6 UV-I 622 W/m 20,6 km/h (4 Bft)
10.07.2013 10:40 20,6 C 25,7 C 67 % 1022,0 hPa 0,0 l/m 1 min 0 min 2,6 UV-I 626 W/m 20,6 km/h (4 Bft)
10.07.2013 10:41 20,6 C 25,7 C 66 % 1022,0 hPa 0,0 l/m 1 min 0 min 2,6 UV-I 626 W/m 12,9 km/h (3 Bft)
10.07.2013 10:42 20,6 C 26,2 C 67 % 1022,1 hPa 0,0 l/m 1 min 0 min 2,7 UV-I 631 W/m 12,9 km/h (3 Bft)
10.07.2013 10:43 20,7 C 26,2 C 67 % 1022,1 hPa 0,0 l/m 1 min 0 min 2,7 UV-I 631 W/m 12,9 km/h (3 Bft)
10.07.2013 10:44 20,7 C 26,8 C 67 % 1022,0 hPa 0,0 l/m 1 min 0 min 2,7 UV-I 631 W/m 7,7 km/h (2 Bft)
10.07.2013 10:45 20,7 C 27,3 C 67 % 1022,1 hPa 0,0 l/m 1 min 0 min 2,7 UV-I 638 W/m 5,1 km/h (1 Bft)
10.07.2013 10:46 20,8 C 27,3 C 67 % 1022,1 hPa 0,0 l/m 1 min 0 min 2,8 UV-I 640 W/m 10,3 km/h (2 Bft)
10.07.2013 10:47 20,8 C 26,8 C 66 % 1022,1 hPa 0,0 l/m 1 min 0 min 2,8 UV-I 643 W/m 18,0 km/h (3 Bft)
10.07.2013 10:48 20,8 C 27,3 C 66 % 1022,0 hPa 0,0 l/m 1 min 0 min 2,8 UV-I 647 W/m 7,7 km/h (2 Bft)
10.07.2013 10:49 20,8 C 27,3 C 67 % 1022,1 hPa 0,0 l/m 1 min 0 min 2,9 UV-I 650 W/m 10,3 km/h (2 Bft)
10.07.2013 10:50 20,8 C 26,8 C 67 % 1022,0 hPa 0,0 l/m 1 min 0 min 2,9 UV-I 656 W/m 2,6 km/h (1 Bft)
10.07.2013 10:51 20,9 C 27,3 C 66 % 1022,0 hPa 0,0 l/m 1 min 0 min 2,8 UV-I 638 W/m 0,0 km/h (0 Bft)
10.07.2013 10:52 20,9 C 27,3 C 67 % 1021,9 hPa 0,0 l/m 1 min 0 min 2,8 UV-I 633 W/m 12,9 km/h (3 Bft)
10.07.2013 10:53 20,9 C 26,8 C 66 % 1022,0 hPa 0,0 l/m 1 min 0 min 2,9 UV-I 642 W/m 2,6 km/h (1 Bft)
10.07.2013 10:54 21,0 C 26,8 C 66 % 1022,0 hPa 0,0 l/m 1 min 0 min 2,9 UV-I 645 W/m 2,6 km/h (1 Bft)
10.07.2013 10:55 21,1 C 27,3 C 67 % 1022,0 hPa 0,0 l/m 1 min 0 min 2,9 UV-I 649 W/m 10,3 km/h (2 Bft)
10.07.2013 10:56 21,1 C 27,9 C 66 % 1022,0 hPa 0,0 l/m 1 min 0 min 3,0 UV-I 654 W/m 7,7 km/h (2 Bft)
10.07.2013 10:57 21,2 C 27,3 C 66 % 1022,0 hPa 0,0 l/m 1 min 0 min 3,0 UV-I 659 W/m 10,3 km/h (2 Bft)
10.07.2013 11:02 21,3 C 27,3 C 66 % 1022,0 hPa 0,0 l/m 2 min 0 min 3,1 UV-I 668 W/m 15,4 km/h (3 Bft)
10.07.2013 11:04 21,3 C 27,3 C 65 % 1022,0 hPa 0,0 l/m 2 min 0 min 3,1 UV-I 675 W/m 15,4 km/h (3 Bft)
10.07.2013 11:05 21,3 C 27,3 C 65 % 1022,0 hPa 0,0 l/m 1 min 0 min 3,1 UV-I 670 W/m 18,0 km/h (3 Bft)
10.07.2013 11:10 21,4 C 26,8 C 66 % 1022,0 hPa 0,0 l/m 2 min 0 min 3,2 UV-I 684 W/m 2,6 km/h (1 Bft)
10.07.2013 11:12 21,4 C 27,3 C 66 % 1022,0 hPa 0,0 l/m 2 min 0 min 3,3 UV-I 694 W/m 12,9 km/h (3 Bft)
10.07.2013 11:14 21,5 C 27,9 C 66 % 1022,0 hPa 0,0 l/m 2 min 0 min 3,4 UV-I 696 W/m 7,7 km/h (2 Bft)
10.07.2013 11:16 21,6 C 27,9 C 66 % 1022,0 hPa 0,0 l/m 2 min 0 min 3,4 UV-I 691 W/m 12,9 km/h (3 Bft)
10.07.2013 11:18 21,6 C 28,4 C 66 % 1021,9 hPa 0,0 l/m 2 min 0 min 3,4 UV-I 682 W/m 0,0 km/h (0 Bft)
10.07.2013 11:20 21,7 C 27,9 C 66 % 1021,9 hPa 0,0 l/m 2 min 0 min 3,4 UV-I 679 W/m 7,7 km/h (2 Bft)
10.07.2013 11:22 21,8 C 27,3 C 66 % 1021,9 hPa 0,0 l/m 2 min 0 min 3,4 UV-I 686 W/m 15,4 km/h (3 Bft)
10.07.2013 11:24 21,8 C 26,8 C 65 % 1021,9 hPa 0,0 l/m 2 min 0 min 3,5 UV-I 698 W/m 20,6 km/h (4 Bft)
10.07.2013 11:26 21,8 C 26,8 C 65 % 1021,9 hPa 0,0 l/m 2 min 0 min 3,6 UV-I 705 W/m 12,9 km/h (3 Bft)
10.07.2013 11:28 21,9 C 27,9 C 66 % 1021,8 hPa 0,0 l/m 2 min 0 min 3,5 UV-I 693 W/m 10,3 km/h (2 Bft)
10.07.2013 11:30 22,1 C 28,4 C 67 % 1021,7 hPa 0,0 l/m 2 min 0 min 3,6 UV-I 696 W/m 12,9 km/h (3 Bft)
10.07.2013 11:32 22,2 C 27,3 C 65 % 1021,8 hPa 0,0 l/m 2 min 0 min 3,6 UV-I 707 W/m 18,0 km/h (3 Bft)
10.07.2013 11:34 22,1 C 27,3 C 65 % 1021,8 hPa 0,0 l/m 2 min 0 min 3,7 UV-I 714 W/m 10,3 km/h (2 Bft)
10.07.2013 11:36 22,1 C 27,3 C 65 % 1021,9 hPa 0,0 l/m 2 min 0 min 3,8 UV-I 729 W/m 10,3 km/h (2 Bft)
10.07.2013 11:38 21,9 C 27,3 C 65 % 1021,8 hPa 0,0 l/m 2 min 0 min 3,7 UV-I 728 W/m 12,9 km/h (3 Bft)
10.07.2013 11:40 21,9 C 27,9 C 66 % 1021,8 hPa 0,0 l/m 2 min 0 min 3,7 UV-I 707 W/m 15,4 km/h (3 Bft)
10.07.2013 11:42 22,0 C 27,9 C 65 % 1021,8 hPa 0,0 l/m 2 min 0 min 3,8 UV-I 742 W/m 20,6 km/h (4 Bft)
10.07.2013 11:44 21,9 C 27,3 C 64 % 1021,8 hPa 0,0 l/m 2 min 0 min 3,9 UV-I 742 W/m 23,2 km/h (4 Bft)
10.07.2013 11:46 21,8 C 27,9 C 65 % 1021,8 hPa 0,0 l/m 2 min 0 min 3,9 UV-I 744 W/m 12,9 km/h (3 Bft)
10.07.2013 11:48 22,1 C 27,3 C 64 % 1021,8 hPa 0,0 l/m 2 min 0 min 3,9 UV-I 754 W/m 12,9 km/h (3 Bft)
10.07.2013 11:50 21,9 C 26,2 C 64 % 1021,8 hPa 0,0 l/m 2 min 0 min 3,9 UV-I 729 W/m 15,4 km/h (3 Bft)
10.07.2013 11:52 22,0 C 26,2 C 66 % 1021,9 hPa 0,0 l/m 2 min 0 min 3,9 UV-I 749 W/m 12,9 km/h (3 Bft)
10.07.2013 11:54 21,8 C 25,1 C 63 % 1021,9 hPa 0,0 l/m 2 min 0 min 3,9 UV-I 712 W/m 15,4 km/h (3 Bft)
10.07.2013 11:56 21,7 C 25,7 C 65 % 1021,9 hPa 0,0 l/m 2 min 0 min 3,9 UV-I 726 W/m 10,3 km/h (2 Bft)
10.07.2013 11:58 21,9 C 26,2 C 66 % 1021,9 hPa 0,0 l/m 2 min 0 min 3,7 UV-I 682 W/m 18,0 km/h (3 Bft)
10.07.2013 12:00 21,9 C 26,8 C 64 % 1021,9 hPa 0,0 l/m 2 min 0 min 3,9 UV-I 715 W/m 15,4 km/h (3 Bft)
10.07.2013 12:02 21,9 C 26,8 C 64 % 1021,9 hPa 0,0 l/m 2 min 0 min 4,0 UV-I 729 W/m 18,0 km/h (3 Bft)
10.07.2013 12:06 21,6 C 26,2 C 64 % 1021,8 hPa 0,0 l/m 2 min 0 min 4,0 UV-I 733 W/m 20,6 km/h (4 Bft)
10.07.2013 12:08 21,7 C 27,3 C 65 % 1021,9 hPa 0,0 l/m 2 min 0 min 4,1 UV-I 761 W/m 12,9 km/h (3 Bft)
10.07.2013 12:10 21,8 C 27,9 C 65 % 1021,9 hPa 0,0 l/m 2 min 0 min 4,2 UV-I 816 W/m 18,0 km/h (3 Bft)
10.07.2013 12:12 21,9 C 28,4 C 64 % 1021,9 hPa 0,0 l/m 2 min 0 min 3,3 UV-I 842 W/m 20,6 km/h (4 Bft)
10.07.2013 12:14 21,8 C 26,2 C 64 % 1021,8 hPa 0,0 l/m 2 min 0 min 3,1 UV-I 842 W/m 25,7 km/h (4 Bft)
10.07.2013 12:16 21,7 C 25,7 C 64 % 1021,9 hPa 0,0 l/m 0 min 0 min 4,2 UV-I 424 W/m 20,6 km/h (4 Bft)
10.07.2013 12:18 21,7 C 26,8 C 65 % 1021,8 hPa 0,0 l/m 2 min 0 min 4,0 UV-I 809 W/m 18,0 km/h (3 Bft)
10.07.2013 12:20 21,6 C 26,8 C 66 % 1021,8 hPa 0,0 l/m 2 min 0 min 4,3 UV-I 784 W/m 15,4 km/h (3 Bft)
10.07.2013 12:22 21,7 C 27,3 C 66 % 1021,8 hPa 0,0 l/m 2 min 0 min 4,4 UV-I 793 W/m 25,7 km/h (4 Bft)
10.07.2013 12:24 21,8 C 27,3 C 65 % 1021,8 hPa 0,0 l/m 2 min 0 min 4,4 UV-I 782 W/m 20,6 km/h (4 Bft)
10.07.2013 12:26 21,7 C 27,3 C 65 % 1021,7 hPa 0,0 l/m 2 min 0 min 4,4 UV-I 796 W/m 25,7 km/h (4 Bft)
10.07.2013 12:28 21,7 C 26,8 C 67 % 1021,6 hPa 0,0 l/m 2 min 0 min 3,5 UV-I 821 W/m 20,6 km/h (4 Bft)
10.07.2013 12:30 21,7 C 27,3 C 66 % 1021,7 hPa 0,0 l/m 2 min 0 min 4,5 UV-I 809 W/m 20,6 km/h (4 Bft)
10.07.2013 12:32 21,7 C 28,4 C 67 % 1021,7 hPa 0,0 l/m 2 min 0 min 4,7 UV-I 828 W/m 23,2 km/h (4 Bft)
10.07.2013 12:34 21,8 C 28,4 C 67 % 1021,6 hPa 0,0 l/m 2 min 0 min 4,6 UV-I 854 W/m 15,4 km/h (3 Bft)
10.07.2013 12:36 22,1 C 27,3 C 67 % 1021,6 hPa 0,0 l/m 2 min 0 min 2,5 UV-I 854 W/m 18,0 km/h (3 Bft)
10.07.2013 12:38 22,2 C 25,7 C 66 % 1021,8 hPa 0,0 l/m 0 min 0 min 2,5 UV-I 350 W/m 18,0 km/h (3 Bft)
10.07.2013 12:40 21,9 C 24,0 C 66 % 1021,8 hPa 0,0 l/m 0 min 0 min 2,4 UV-I 309 W/m 25,7 km/h (4 Bft)
10.07.2013 12:42 21,7 C 24,0 C 67 % 1021,7 hPa 0,0 l/m 0 min 0 min 3,1 UV-I 367 W/m 10,3 km/h (2 Bft)
10.07.2013 12:44 21,7 C 24,6 C 68 % 1021,7 hPa 0,0 l/m 0 min 0 min 2,4 UV-I 401 W/m 12,9 km/h (3 Bft)
10.07.2013 12:46 21,6 C 24,0 C 68 % 1021,7 hPa 0,0 l/m 0 min 0 min 2,5 UV-I 441 W/m 15,4 km/h (3 Bft)
10.07.2013 12:48 21,7 C 24,6 C 69 % 1021,7 hPa 0,0 l/m 0 min 0 min 3,5 UV-I 441 W/m 12,9 km/h (3 Bft)
10.07.2013 12:50 21,7 C 25,1 C 69 % 1021,6 hPa 0,0 l/m 2 min 0 min 3,1 UV-I 497 W/m 15,4 km/h (3 Bft)
10.07.2013 12:52 21,8 C 25,7 C 70 % 1021,7 hPa 0,0 l/m 2 min 0 min 3,9 UV-I 497 W/m 18,0 km/h (3 Bft)
10.07.2013 12:54 21,9 C 25,7 C 70 % 1021,7 hPa 0,0 l/m 2 min 0 min 2,4 UV-I 1023 W/m 20,6 km/h (4 Bft)
10.07.2013 12:56 21,9 C 24,6 C 69 % 1021,7 hPa 0,0 l/m 0 min 0 min 2,3 UV-I 424 W/m 15,4 km/h (3 Bft)
10.07.2013 12:58 21,8 C 24,0 C 70 % 1021,8 hPa 0,0 l/m 0 min 0 min 2,4 UV-I 415 W/m 15,4 km/h (3 Bft)
10.07.2013 13:00 21,6 C 23,4 C 70 % 1021,7 hPa 0,0 l/m 0 min 0 min 2,6 UV-I 429 W/m 20,6 km/h (4 Bft)
10.07.2013 13:02 21,4 C 23,4 C 71 % 1021,7 hPa 0,0 l/m 0 min 0 min 2,7 UV-I 455 W/m 18,0 km/h (3 Bft)
10.07.2013 13:06 21,4 C 24,0 C 73 % 1021,7 hPa 0,0 l/m 2 min 0 min 3,1 UV-I 663 W/m 18,0 km/h (3 Bft)
10.07.2013 13:08 21,6 C 24,0 C 72 % 1021,7 hPa 0,0 l/m 2 min 0 min 2,7 UV-I 663 W/m 15,4 km/h (3 Bft)
10.07.2013 13:10 21,6 C 24,0 C 71 % 1021,6 hPa 0,0 l/m 0 min 0 min 2,5 UV-I 403 W/m 18,0 km/h (3 Bft)
10.07.2013 13:12 21,7 C 24,0 C 71 % 1021,7 hPa 0,0 l/m 0 min 0 min 2,4 UV-I 446 W/m 20,6 km/h (4 Bft)
10.07.2013 13:14 21,6 C 22,9 C 70 % 1021,7 hPa 0,0 l/m 2 min 0 min 2,2 UV-I 527 W/m 20,6 km/h (4 Bft)
10.07.2013 13:16 21,3 C 22,9 C 72 % 1021,7 hPa 0,0 l/m 0 min 0 min 2,1 UV-I 404 W/m 18,0 km/h (3 Bft)
10.07.2013 13:18 21,1 C 22,3 C 73 % 1021,7 hPa 0,0 l/m 0 min 0 min 2,1 UV-I 399 W/m 28,3 km/h (4 Bft)
10.07.2013 13:20 20,8 C 21,8 C 74 % 1021,7 hPa 0,0 l/m 2 min 0 min 2,6 UV-I 487 W/m 23,2 km/h (4 Bft)
10.07.2013 13:22 20,7 C 22,3 C 75 % 1021,7 hPa 0,0 l/m 0 min 0 min 2,6 UV-I 471 W/m 20,6 km/h (4 Bft)
10.07.2013 13:24 20,7 C 22,3 C 75 % 1021,7 hPa 0,0 l/m 2 min 0 min 3,0 UV-I 552 W/m 25,7 km/h (4 Bft)
10.07.2013 13:26 20,6 C 22,3 C 76 % 1021,7 hPa 0,0 l/m 2 min 0 min 3,1 UV-I 559 W/m 25,7 km/h (4 Bft)
10.07.2013 13:28 20,5 C 22,3 C 75 % 1021,7 hPa 0,0 l/m 2 min 0 min 3,1 UV-I 555 W/m 25,7 km/h (4 Bft)
10.07.2013 13:30 20,4 C 21,8 C 76 % 1021,8 hPa 0,0 l/m 2 min 0 min 3,2 UV-I 561 W/m 25,7 km/h (4 Bft)
10.07.2013 13:32 20,3 C 22,3 C 77 % 1021,7 hPa 0,0 l/m 2 min 0 min 3,3 UV-I 650 W/m 23,2 km/h (4 Bft)
10.07.2013 13:34 20,5 C 23,4 C 77 % 1021,6 hPa 0,0 l/m 2 min 0 min 3,3 UV-I 650 W/m 20,6 km/h (4 Bft)
10.07.2013 13:36 20,6 C 22,9 C 76 % 1021,5 hPa 0,0 l/m 2 min 0 min 3,3 UV-I 650 W/m 18,0 km/h (3 Bft)
10.07.2013 13:38 20,8 C 24,0 C 76 % 1021,6 hPa 0,0 l/m 2 min 0 min 3,4 UV-I 777 W/m 18,0 km/h (3 Bft)
10.07.2013 13:40 21,0 C 24,0 C 76 % 1021,5 hPa 0,0 l/m 2 min 0 min 3,1 UV-I 577 W/m 12,9 km/h (3 Bft)
10.07.2013 13:42 21,3 C 24,0 C 74 % 1021,6 hPa 0,0 l/m 2 min 0 min 3,1 UV-I 577 W/m 20,6 km/h (4 Bft)
10.07.2013 13:44 21,2 C 23,4 C 73 % 1021,5 hPa 0,0 l/m 2 min 0 min 2,9 UV-I 540 W/m 25,7 km/h (4 Bft)
10.07.2013 13:46 21,1 C 22,9 C 73 % 1021,6 hPa 0,0 l/m 2 min 0 min 2,7 UV-I 508 W/m 23,2 km/h (4 Bft)
10.07.2013 13:48 21,0 C 22,9 C 73 % 1021,6 hPa 0,0 l/m 0 min 0 min 2,4 UV-I 427 W/m 18,0 km/h (3 Bft)
10.07.2013 13:50 20,8 C 21,8 C 73 % 1021,6 hPa 0,0 l/m 0 min 0 min 2,4 UV-I 411 W/m 38,6 km/h (5 Bft)
10.07.2013 13:52 20,6 C 21,8 C 73 % 1021,6 hPa 0,0 l/m 0 min 0 min 2,7 UV-I 425 W/m 20,6 km/h (4 Bft)
10.07.2013 13:54 20,5 C 21,8 C 74 % 1021,5 hPa 0,0 l/m 0 min 0 min 2,6 UV-I 422 W/m 25,7 km/h (4 Bft)
10.07.2013 13:56 20,4 C 21,8 C 75 % 1021,5 hPa 0,0 l/m 0 min 0 min 2,6 UV-I 360 W/m 23,2 km/h (4 Bft)
10.07.2013 13:58 20,3 C 21,8 C 75 % 1021,5 hPa 0,0 l/m 0 min 0 min 3,6 UV-I 381 W/m 25,7 km/h (4 Bft)
10.07.2013 14:00 20,3 C 21,8 C 75 % 1021,5 hPa 0,0 l/m 0 min 0 min 3,7 UV-I 381 W/m 28,3 km/h (4 Bft)
10.07.2013 14:02 20,4 C 22,3 C 75 % 1021,5 hPa 0,0 l/m 2 min 0 min 4,0 UV-I 657 W/m 23,2 km/h (4 Bft)
10.07.2013 14:06 20,8 C 22,3 C 75 % 1021,5 hPa 0,0 l/m 0 min 0 min 2,2 UV-I 374 W/m 23,2 km/h (4 Bft)
10.07.2013 14:08 20,8 C 22,3 C 74 % 1021,4 hPa 0,0 l/m 0 min 0 min 2,1 UV-I 355 W/m 20,6 km/h (4 Bft)
10.07.2013 14:10 20,7 C 22,3 C 74 % 1021,4 hPa 0,0 l/m 0 min 0 min 2,1 UV-I 367 W/m 15,4 km/h (3 Bft)
10.07.2013 14:12 20,7 C 22,3 C 74 % 1021,4 hPa 0,0 l/m 0 min 0 min 2,0 UV-I 367 W/m 15,4 km/h (3 Bft)
10.07.2013 14:14 20,7 C 22,3 C 74 % 1021,4 hPa 0,0 l/m 0 min 0 min 1,8 UV-I 338 W/m 10,3 km/h (2 Bft)
10.07.2013 14:16 20,7 C 21,8 C 75 % 1021,5 hPa 0,0 l/m 0 min 0 min 1,7 UV-I 318 W/m 23,2 km/h (4 Bft)
10.07.2013 14:18 20,5 C 21,8 C 73 % 1021,5 hPa 0,0 l/m 0 min 0 min 1,7 UV-I 322 W/m 18,0 km/h (3 Bft)
10.07.2013 14:20 20,5 C 21,2 C 73 % 1021,5 hPa 0,0 l/m 0 min 0 min 1,7 UV-I 327 W/m 20,6 km/h (4 Bft)
10.07.2013 14:22 20,4 C 21,2 C 73 % 1021,5 hPa 0,0 l/m 0 min 0 min 1,7 UV-I 327 W/m 23,2 km/h (4 Bft)
10.07.2013 14:24 20,3 C 21,2 C 73 % 1021,4 hPa 0,0 l/m 0 min 0 min 1,5 UV-I 311 W/m 23,2 km/h (4 Bft)
10.07.2013 14:26 20,2 C 20,7 C 74 % 1021,3 hPa 0,0 l/m 0 min 0 min 1,3 UV-I 271 W/m 20,6 km/h (4 Bft)
10.07.2013 14:28 20,1 C 20,7 C 73 % 1021,3 hPa 0,0 l/m 0 min 0 min 1,3 UV-I 274 W/m 20,6 km/h (4 Bft)
10.07.2013 14:30 20,2 C 21,2 C 74 % 1021,3 hPa 0,0 l/m 0 min 0 min 1,4 UV-I 288 W/m 0,0 km/h (0 Bft)
10.07.2013 14:32 20,3 C 21,2 C 73 % 1021,4 hPa 0,0 l/m 0 min 0 min 1,6 UV-I 316 W/m 23,2 km/h (4 Bft)
10.07.2013 14:34 20,2 C 21,2 C 73 % 1021,4 hPa 0,0 l/m 0 min 0 min 1,6 UV-I 318 W/m 18,0 km/h (3 Bft)
10.07.2013 14:36 20,2 C 21,2 C 73 % 1021,4 hPa 0,0 l/m 0 min 0 min 1,5 UV-I 308 W/m 12,9 km/h (3 Bft)
10.07.2013 14:38 20,3 C 21,2 C 74 % 1021,3 hPa 0,0 l/m 0 min 0 min 1,4 UV-I 294 W/m 12,9 km/h (3 Bft)
10.07.2013 14:40 20,4 C 21,2 C 73 % 1021,4 hPa 0,0 l/m 0 min 0 min 1,5 UV-I 299 W/m 18,0 km/h (3 Bft)
10.07.2013 14:42 20,3 C 21,2 C 72 % 1021,4 hPa 0,0 l/m 0 min 0 min 1,7 UV-I 339 W/m 10,3 km/h (2 Bft)
10.07.2013 14:44 20,2 C 21,2 C 72 % 1021,3 hPa 0,0 l/m 0 min 0 min 1,8 UV-I 350 W/m 20,6 km/h (4 Bft)
10.07.2013 14:46 20,2 C 21,2 C 72 % 1021,4 hPa 0,0 l/m 0 min 0 min 1,9 UV-I 353 W/m 15,4 km/h (3 Bft)
10.07.2013 14:48 20,2 C 21,2 C 72 % 1021,4 hPa 0,0 l/m 0 min 0 min 2,0 UV-I 380 W/m 12,9 km/h (3 Bft)
10.07.2013 14:50 20,3 C 21,8 C 73 % 1021,3 hPa 0,0 l/m 0 min 0 min 2,0 UV-I 378 W/m 10,3 km/h (2 Bft)
10.07.2013 14:52 20,4 C 22,3 C 73 % 1021,3 hPa 0,0 l/m 0 min 0 min 2,2 UV-I 399 W/m 12,9 km/h (3 Bft)
10.07.2013 14:54 20,5 C 21,8 C 72 % 1021,4 hPa 0,0 l/m 0 min 0 min 2,2 UV-I 411 W/m 15,4 km/h (3 Bft)
10.07.2013 14:56 20,6 C 22,3 C 73 % 1021,3 hPa 0,0 l/m 0 min 0 min 2,2 UV-I 404 W/m 12,9 km/h (3 Bft)
10.07.2013 14:58 20,6 C 21,8 C 72 % 1021,3 hPa 0,0 l/m 0 min 0 min 2,4 UV-I 429 W/m 18,0 km/h (3 Bft)
10.07.2013 15:00 20,4 C 21,8 C 73 % 1021,3 hPa 0,0 l/m 0 min 0 min 2,1 UV-I 422 W/m 20,6 km/h (4 Bft)
10.07.2013 15:02 20,3 C 21,2 C 73 % 1021,4 hPa 0,0 l/m 0 min 0 min 1,4 UV-I 297 W/m 18,0 km/h (3 Bft)
10.07.2013 15:06 20,3 C 21,2 C 73 % 1021,4 hPa 0,0 l/m 0 min 0 min 1,3 UV-I 272 W/m 25,7 km/h (4 Bft)
10.07.2013 15:08 20,3 C 21,2 C 74 % 1021,4 hPa 0,0 l/m 0 min 0 min 1,3 UV-I 272 W/m 12,9 km/h (3 Bft)
10.07.2013 15:10 20,3 C 21,2 C 74 % 1021,4 hPa 0,0 l/m 0 min 0 min 1,3 UV-I 279 W/m 10,3 km/h (2 Bft)
10.07.2013 15:12 20,3 C 21,2 C 74 % 1021,4 hPa 0,0 l/m 0 min 0 min 1,5 UV-I 316 W/m 15,4 km/h (3 Bft)
10.07.2013 15:14 20,3 C 21,2 C 73 % 1021,4 hPa 0,0 l/m 0 min 0 min 1,8 UV-I 346 W/m 25,7 km/h (4 Bft)
10.07.2013 15:16 20,2 C 21,2 C 73 % 1021,4 hPa 0,0 l/m 0 min 0 min 1,8 UV-I 355 W/m 18,0 km/h (3 Bft)
10.07.2013 15:18 20,2 C 21,2 C 74 % 1021,4 hPa 0,0 l/m 0 min 0 min 1,6 UV-I 306 W/m 15,4 km/h (3 Bft)
10.07.2013 15:20 20,2 C 21,2 C 73 % 1021,4 hPa 0,0 l/m 0 min 0 min 1,2 UV-I 271 W/m 20,6 km/h (4 Bft)
10.07.2013 15:22 20,2 C 20,7 C 74 % 1021,4 hPa 0,0 l/m 0 min 0 min 1,1 UV-I 253 W/m 20,6 km/h (4 Bft)
10.07.2013 15:24 20,2 C 20,7 C 74 % 1021,4 hPa 0,0 l/m 0 min 0 min 1,0 UV-I 237 W/m 15,4 km/h (3 Bft)
10.07.2013 15:26 20,1 C 20,7 C 74 % 1021,4 hPa 0,0 l/m 0 min 0 min 0,9 UV-I 230 W/m 12,9 km/h (3 Bft)
10.07.2013 15:28 20,1 C 20,7 C 75 % 1021,3 hPa 0,0 l/m 0 min 0 min 0,9 UV-I 229 W/m 20,6 km/h (4 Bft)
10.07.2013 15:30 20,0 C 20,1 C 75 % 1021,4 hPa 0,0 l/m 0 min 0 min 0,9 UV-I 236 W/m 20,6 km/h (4 Bft)
10.07.2013 15:32 19,9 C 20,7 C 76 % 1021,4 hPa 0,0 l/m 0 min 0 min 1,1 UV-I 258 W/m 15,4 km/h (3 Bft)
10.07.2013 15:34 19,9 C 20,1 C 76 % 1021,3 hPa 0,0 l/m 0 min 0 min 1,2 UV-I 278 W/m 18,0 km/h (3 Bft)
10.07.2013 15:36 19,9 C 20,7 C 77 % 1021,3 hPa 0,0 l/m 0 min 0 min 1,2 UV-I 285 W/m 10,3 km/h (2 Bft)
10.07.2013 15:38 20,1 C 20,7 C 76 % 1021,2 hPa 0,0 l/m 0 min 0 min 1,2 UV-I 278 W/m 23,2 km/h (4 Bft)
10.07.2013 15:40 20,1 C 20,7 C 76 % 1021,2 hPa 0,0 l/m 0 min 0 min 1,2 UV-I 287 W/m 18,0 km/h (3 Bft)
10.07.2013 15:42 20,1 C 20,7 C 76 % 1021,2 hPa 0,0 l/m 0 min 0 min 1,1 UV-I 279 W/m 18,0 km/h (3 Bft)
10.07.2013 15:44 20,0 C 20,7 C 76 % 1021,2 hPa 0,0 l/m 0 min 0 min 1,2 UV-I 279 W/m 15,4 km/h (3 Bft)
10.07.2013 15:46 20,1 C 21,2 C 77 % 1021,1 hPa 0,0 l/m 0 min 0 min 1,3 UV-I 297 W/m 10,3 km/h (2 Bft)
10.07.2013 15:48 20,2 C 21,2 C 77 % 1021,2 hPa 0,0 l/m 0 min 0 min 1,5 UV-I 336 W/m 12,9 km/h (3 Bft)
10.07.2013 15:50 20,2 C 21,2 C 76 % 1021,1 hPa 0,0 l/m 0 min 0 min 1,8 UV-I 378 W/m 12,9 km/h (3 Bft)
10.07.2013 15:52 20,2 C 21,2 C 76 % 1021,1 hPa 0,0 l/m 0 min 0 min 2,0 UV-I 380 W/m 12,9 km/h (3 Bft)
10.07.2013 15:54 20,2 C 21,2 C 77 % 1021,2 hPa 0,0 l/m 0 min 0 min 2,6 UV-I 396 W/m 12,9 km/h (3 Bft)
10.07.2013 15:56 20,3 C 21,8 C 77 % 1021,1 hPa 0,0 l/m 2 min 0 min 2,5 UV-I 837 W/m 12,9 km/h (3 Bft)
10.07.2013 15:58 20,5 C 21,8 C 76 % 1021,1 hPa 0,0 l/m 2 min 0 min 2,7 UV-I 691 W/m 12,9 km/h (3 Bft)
10.07.2013 16:00 20,6 C 22,3 C 76 % 1021,0 hPa 0,0 l/m 2 min 0 min 2,0 UV-I 691 W/m 15,4 km/h (3 Bft)
10.07.2013 16:02 20,7 C 22,3 C 76 % 1021,0 hPa 0,0 l/m 2 min 0 min 2,6 UV-I 691 W/m 18,0 km/h (3 Bft)
10.07.2013 16:06 20,5 C 21,2 C 75 % 1021,0 hPa 0,0 l/m 0 min 0 min 3,0 UV-I 207 W/m 25,7 km/h (4 Bft)
10.07.2013 16:08 20,4 C 21,2 C 76 % 1021,0 hPa 0,0 l/m 2 min 0 min 3,2 UV-I 758 W/m 10,3 km/h (2 Bft)
10.07.2013 16:10 20,7 C 21,8 C 76 % 1021,0 hPa 0,0 l/m 2 min 0 min 3,2 UV-I 740 W/m 12,9 km/h (3 Bft)
10.07.2013 16:12 20,7 C 21,2 C 74 % 1021,0 hPa 0,0 l/m 2 min 0 min 1,6 UV-I 740 W/m 18,0 km/h (3 Bft)
10.07.2013 16:14 20,6 C 21,2 C 74 % 1021,0 hPa 0,0 l/m 0 min 0 min 2,8 UV-I 283 W/m 2,6 km/h (1 Bft)
10.07.2013 16:16 20,4 C 21,2 C 75 % 1021,0 hPa 0,0 l/m 0 min 0 min 1,4 UV-I 221 W/m 15,4 km/h (3 Bft)
10.07.2013 16:18 20,6 C 21,2 C 75 % 1021,0 hPa 0,0 l/m 0 min 0 min 3,0 UV-I 232 W/m 15,4 km/h (3 Bft)
10.07.2013 16:20 20,7 C 21,8 C 74 % 1021,0 hPa 0,0 l/m 0 min 0 min 2,6 UV-I 232 W/m 5,1 km/h (1 Bft)
10.07.2013 16:22 20,7 C 21,8 C 74 % 1021,0 hPa 0,0 l/m 0 min 0 min 1,7 UV-I 258 W/m 12,9 km/h (3 Bft)
10.07.2013 16:24 20,7 C 21,2 C 74 % 1021,0 hPa 0,0 l/m 0 min 0 min 1,5 UV-I 227 W/m 18,0 km/h (3 Bft)
10.07.2013 16:26 20,6 C 21,2 C 74 % 1021,0 hPa 0,0 l/m 0 min 0 min 1,6 UV-I 220 W/m 12,9 km/h (3 Bft)
10.07.2013 16:28 20,6 C 21,8 C 73 % 1020,9 hPa 0,0 l/m 2 min 0 min 2,7 UV-I 619 W/m 10,3 km/h (2 Bft)
10.07.2013 16:30 20,7 C 22,3 C 73 % 1020,9 hPa 0,0 l/m 2 min 0 min 2,8 UV-I 647 W/m 10,3 km/h (2 Bft)
10.07.2013 16:32 20,9 C 22,9 C 71 % 1020,8 hPa 0,0 l/m 2 min 0 min 1,8 UV-I 680 W/m 18,0 km/h (3 Bft)
10.07.2013 16:34 21,1 C 22,9 C 70 % 1020,8 hPa 0,0 l/m 2 min 0 min 2,7 UV-I 645 W/m 18,0 km/h (3 Bft)
10.07.2013 16:36 21,1 C 22,3 C 70 % 1020,7 hPa 0,0 l/m 2 min 0 min 2,8 UV-I 691 W/m 18,0 km/h (3 Bft)
10.07.2013 16:38 21,2 C 22,3 C 70 % 1020,7 hPa 0,0 l/m 2 min 0 min 2,5 UV-I 689 W/m 12,9 km/h (3 Bft)
10.07.2013 16:40 21,2 C 21,8 C 70 % 1020,7 hPa 0,0 l/m 0 min 0 min 1,7 UV-I 192 W/m 18,0 km/h (3 Bft)
10.07.2013 16:42 21,1 C 21,8 C 68 % 1020,6 hPa 0,0 l/m 0 min 0 min 1,8 UV-I 192 W/m 20,6 km/h (4 Bft)
10.07.2013 16:44 21,1 C 21,8 C 69 % 1020,6 hPa 0,0 l/m 0 min 0 min 2,6 UV-I 192 W/m 12,9 km/h (3 Bft)
10.07.2013 16:46 21,2 C 21,8 C 68 % 1020,6 hPa 0,0 l/m 2 min 0 min 2,6 UV-I 724 W/m 15,4 km/h (3 Bft)
10.07.2013 16:48 21,3 C 22,3 C 68 % 1020,6 hPa 0,0 l/m 0 min 0 min 1,5 UV-I 258 W/m 18,0 km/h (3 Bft)
10.07.2013 16:50 21,4 C 21,8 C 68 % 1020,6 hPa 0,0 l/m 0 min 0 min 1,4 UV-I 230 W/m 18,0 km/h (3 Bft)
10.07.2013 16:52 21,4 C 21,8 C 68 % 1020,6 hPa 0,0 l/m 2 min 0 min 2,4 UV-I 717 W/m 25,7 km/h (4 Bft)
10.07.2013 16:54 21,5 C 22,3 C 67 % 1020,6 hPa 0,0 l/m 2 min 0 min 2,4 UV-I 701 W/m 20,6 km/h (4 Bft)
10.07.2013 16:56 21,7 C 22,9 C 66 % 1020,5 hPa 0,0 l/m 2 min 0 min 2,4 UV-I 724 W/m 15,4 km/h (3 Bft)
10.07.2013 16:58 22,0 C 22,9 C 65 % 1020,6 hPa 0,0 l/m 2 min 0 min 2,4 UV-I 754 W/m 25,7 km/h (4 Bft)
10.07.2013 17:00 22,1 C 22,9 C 63 % 1020,5 hPa 0,0 l/m 2 min 0 min 2,3 UV-I 742 W/m 20,6 km/h (4 Bft)
10.07.2013 17:02 22,2 C 23,4 C 63 % 1020,5 hPa 0,0 l/m 2 min 0 min 2,3 UV-I 731 W/m 20,6 km/h (4 Bft)
10.07.2013 17:06 22,2 C 23,4 C 64 % 1020,5 hPa 0,0 l/m 2 min 0 min 2,1 UV-I 684 W/m 25,7 km/h (4 Bft)
10.07.2013 17:08 22,2 C 22,9 C 63 % 1020,5 hPa 0,0 l/m 2 min 0 min 2,0 UV-I 663 W/m 20,6 km/h (4 Bft)
10.07.2013 17:10 22,0 C 22,9 C 63 % 1020,5 hPa 0,0 l/m 2 min 0 min 2,0 UV-I 631 W/m 18,0 km/h (3 Bft)
10.07.2013 17:12 22,1 C 22,9 C 63 % 1020,4 hPa 0,0 l/m 2 min 0 min 2,0 UV-I 664 W/m 20,6 km/h (4 Bft)
10.07.2013 17:14 22,1 C 22,9 C 64 % 1020,4 hPa 0,0 l/m 2 min 0 min 1,9 UV-I 617 W/m 18,0 km/h (3 Bft)
10.07.2013 17:16 22,2 C 22,9 C 64 % 1020,5 hPa 0,0 l/m 2 min 0 min 2,0 UV-I 615 W/m 20,6 km/h (4 Bft)
10.07.2013 17:18 22,2 C 22,3 C 60 % 1020,4 hPa 0,0 l/m 2 min 0 min 1,4 UV-I 598 W/m 23,2 km/h (4 Bft)
10.07.2013 17:20 22,1 C 22,3 C 60 % 1020,4 hPa 0,0 l/m 2 min 0 min 1,7 UV-I 598 W/m 15,4 km/h (3 Bft)
10.07.2013 17:22 21,8 C 22,3 C 60 % 1020,3 hPa 0,0 l/m 2 min 0 min 1,8 UV-I 563 W/m 15,4 km/h (3 Bft)
10.07.2013 17:24 21,9 C 22,3 C 61 % 1020,3 hPa 0,0 l/m 2 min 0 min 1,8 UV-I 584 W/m 15,4 km/h (3 Bft)
10.07.2013 17:26 21,9 C 22,3 C 61 % 1020,3 hPa 0,0 l/m 2 min 0 min 1,7 UV-I 613 W/m 12,9 km/h (3 Bft)
10.07.2013 17:28 22,0 C 22,3 C 61 % 1020,3 hPa 0,0 l/m 2 min 0 min 1,7 UV-I 642 W/m 12,9 km/h (3 Bft)
10.07.2013 17:30 22,3 C 22,9 C 62 % 1020,2 hPa 0,0 l/m 2 min 0 min 1,1 UV-I 635 W/m 2,6 km/h (1 Bft)
10.07.2013 17:32 22,6 C 22,9 C 60 % 1020,3 hPa 0,0 l/m 0 min 0 min 1,0 UV-I 288 W/m 15,4 km/h (3 Bft)
10.07.2013 17:34 22,4 C 22,9 C 61 % 1020,3 hPa 0,0 l/m 2 min 0 min 1,5 UV-I 434 W/m 18,0 km/h (3 Bft)
10.07.2013 17:36 22,3 C 22,3 C 60 % 1020,3 hPa 0,0 l/m 2 min 0 min 1,4 UV-I 573 W/m 15,4 km/h (3 Bft)
10.07.2013 17:38 22,2 C 22,3 C 61 % 1020,2 hPa 0,0 l/m 2 min 0 min 1,4 UV-I 573 W/m 23,2 km/h (4 Bft)
10.07.2013 17:40 22,3 C 22,3 C 59 % 1020,2 hPa 0,0 l/m 2 min 0 min 1,5 UV-I 547 W/m 15,4 km/h (3 Bft)
10.07.2013 17:42 22,4 C 22,3 C 58 % 1020,2 hPa 0,0 l/m 2 min 0 min 1,5 UV-I 538 W/m 23,2 km/h (4 Bft)
10.07.2013 17:44 22,3 C 21,8 C 57 % 1020,2 hPa 0,0 l/m 2 min 0 min 1,4 UV-I 517 W/m 23,2 km/h (4 Bft)
10.07.2013 17:46 22,1 C 21,8 C 58 % 1020,1 hPa 0,0 l/m 2 min 0 min 1,4 UV-I 527 W/m 15,4 km/h (3 Bft)
10.07.2013 17:48 22,2 C 22,3 C 60 % 1020,1 hPa 0,0 l/m 2 min 0 min 1,4 UV-I 527 W/m 7,7 km/h (2 Bft)
10.07.2013 17:50 22,3 C 22,3 C 60 % 1020,2 hPa 0,0 l/m 2 min 0 min 1,3 UV-I 499 W/m 18,0 km/h (3 Bft)
10.07.2013 17:52 22,3 C 22,3 C 59 % 1020,1 hPa 0,0 l/m 2 min 0 min 1,3 UV-I 499 W/m 28,3 km/h (4 Bft)
10.07.2013 17:54 22,3 C 22,3 C 59 % 1020,1 hPa 0,0 l/m 2 min 0 min 1,2 UV-I 499 W/m 18,0 km/h (3 Bft)
10.07.2013 17:56 22,3 C 22,3 C 60 % 1020,1 hPa 0,0 l/m 2 min 0 min 1,2 UV-I 452 W/m 25,7 km/h (4 Bft)
10.07.2013 17:58 22,2 C 21,8 C 58 % 1020,1 hPa 0,0 l/m 2 min 0 min 1,2 UV-I 473 W/m 20,6 km/h (4 Bft)
10.07.2013 18:00 22,2 C 21,8 C 59 % 1020,0 hPa 0,0 l/m 2 min 0 min 1,1 UV-I 450 W/m 15,4 km/h (3 Bft)
10.07.2013 18:02 22,2 C 21,8 C 59 % 1020,0 hPa 0,0 l/m 2 min 0 min 1,0 UV-I 448 W/m 18,0 km/h (3 Bft)
10.07.2013 18:06 22,1 C 21,8 C 60 % 1020,0 hPa 0,0 l/m 2 min 0 min 0,9 UV-I 446 W/m 25,7 km/h (4 Bft)
10.07.2013 18:08 22,1 C 21,8 C 60 % 1020,0 hPa 0,0 l/m 2 min 0 min 1,0 UV-I 387 W/m 12,9 km/h (3 Bft)
10.07.2013 18:10 22,1 C 21,8 C 60 % 1020,0 hPa 0,0 l/m 2 min 0 min 0,7 UV-I 297 W/m 20,6 km/h (4 Bft)
10.07.2013 18:12 22,0 C 21,8 C 60 % 1020,0 hPa 0,0 l/m 0 min 0 min 0,7 UV-I 244 W/m 20,6 km/h (4 Bft)
10.07.2013 18:14 21,9 C 21,2 C 60 % 1019,9 hPa 0,0 l/m 2 min 0 min 0,8 UV-I 308 W/m 18,0 km/h (3 Bft)
10.07.2013 18:16 21,8 C 21,2 C 59 % 1019,9 hPa 0,0 l/m 0 min 0 min 0,7 UV-I 250 W/m 15,4 km/h (3 Bft)
10.07.2013 18:18 21,9 C 21,2 C 60 % 1019,9 hPa 0,0 l/m 0 min 0 min 0,6 UV-I 255 W/m 12,9 km/h (3 Bft)
10.07.2013 18:20 21,8 C 21,2 C 59 % 1019,9 hPa 0,0 l/m 2 min 0 min 0,6 UV-I 271 W/m 18,0 km/h (3 Bft)
10.07.2013 18:22 21,8 C 21,2 C 59 % 1019,9 hPa 0,0 l/m 2 min 0 min 0,7 UV-I 332 W/m 18,0 km/h (3 Bft)
10.07.2013 18:24 21,7 C 21,2 C 60 % 1019,9 hPa 0,0 l/m 2 min 0 min 0,6 UV-I 329 W/m 20,6 km/h (4 Bft)
10.07.2013 18:26 21,8 C 21,8 C 60 % 1019,9 hPa 0,0 l/m 2 min 0 min 0,7 UV-I 385 W/m 20,6 km/h (4 Bft)
10.07.2013 18:28 21,8 C 21,2 C 60 % 1019,9 hPa 0,0 l/m 2 min 0 min 0,7 UV-I 390 W/m 20,6 km/h (4 Bft)
10.07.2013 18:30 21,7 C 21,2 C 60 % 1019,8 hPa 0,0 l/m 2 min 0 min 0,7 UV-I 403 W/m 10,3 km/h (2 Bft)
10.07.2013 18:32 21,7 C 21,2 C 59 % 1019,8 hPa 0,0 l/m 2 min 0 min 0,6 UV-I 364 W/m 15,4 km/h (3 Bft)
10.07.2013 18:34 21,7 C 21,2 C 59 % 1019,8 hPa 0,0 l/m 2 min 0 min 0,6 UV-I 304 W/m 15,4 km/h (3 Bft)
10.07.2013 18:36 21,8 C 21,2 C 60 % 1019,8 hPa 0,0 l/m 2 min 0 min 0,0 UV-I 343 W/m 10,3 km/h (2 Bft)
10.07.2013 18:38 21,8 C 21,2 C 60 % 1019,8 hPa 0,0 l/m 0 min 0 min 0,0 UV-I 149 W/m 12,9 km/h (3 Bft)
10.07.2013 18:40 21,8 C 21,2 C 60 % 1019,8 hPa 0,0 l/m 0 min 0 min 0,0 UV-I 163 W/m 15,4 km/h (3 Bft)
10.07.2013 18:42 21,8 C 21,2 C 61 % 1019,8 hPa 0,0 l/m 0 min 0 min 0,0 UV-I 151 W/m 10,3 km/h (2 Bft)
10.07.2013 18:44 21,7 C 21,2 C 61 % 1019,8 hPa 0,0 l/m 0 min 0 min 0,0 UV-I 213 W/m 18,0 km/h (3 Bft)
10.07.2013 18:46 21,7 C 21,2 C 61 % 1019,8 hPa 0,0 l/m 0 min 0 min 0,0 UV-I 148 W/m 20,6 km/h (4 Bft)
10.07.2013 18:48 21,6 C 21,2 C 61 % 1019,7 hPa 0,0 l/m 0 min 0 min 0,0 UV-I 141 W/m 23,2 km/h (4 Bft)
10.07.2013 18:50 21,5 C 20,7 C 62 % 1019,7 hPa 0,0 l/m 0 min 0 min 0,0 UV-I 130 W/m 23,2 km/h (4 Bft)
10.07.2013 18:52 21,4 C 21,2 C 63 % 1019,8 hPa 0,0 l/m 0 min 0 min 0,0 UV-I 125 W/m 12,9 km/h (3 Bft)
10.07.2013 18:54 21,5 C 21,2 C 63 % 1019,8 hPa 0,0 l/m 0 min 0 min 0,0 UV-I 123 W/m 23,2 km/h (4 Bft)
10.07.2013 18:56 21,4 C 20,7 C 62 % 1019,8 hPa 0,0 l/m 0 min 0 min 0,0 UV-I 125 W/m 18,0 km/h (3 Bft)
10.07.2013 18:58 21,3 C 20,7 C 62 % 1019,8 hPa 0,0 l/m 0 min 0 min 0,0 UV-I 121 W/m 20,6 km/h (4 Bft)
10.07.2013 19:00 21,3 C 20,7 C 63 % 1019,8 hPa 0,0 l/m 0 min 0 min 0,0 UV-I 123 W/m 25,7 km/h (4 Bft)
10.07.2013 19:02 21,2 C 20,7 C 63 % 1019,8 hPa 0,0 l/m 0 min 0 min 0,0 UV-I 128 W/m 20,6 km/h (4 Bft)
10.07.2013 19:06 21,2 C 20,7 C 63 % 1019,9 hPa 0,0 l/m 0 min 0 min 0,0 UV-I 160 W/m 23,2 km/h (4 Bft)
10.07.2013 19:08 21,1 C 20,7 C 63 % 1019,9 hPa 0,0 l/m 0 min 0 min 0,0 UV-I 127 W/m 15,4 km/h (3 Bft)
10.07.2013 19:10 21,1 C 20,7 C 64 % 1019,8 hPa 0,0 l/m 0 min 0 min 0,0 UV-I 120 W/m 15,4 km/h (3 Bft)
10.07.2013 19:12 21,1 C 20,7 C 64 % 1019,8 hPa 0,0 l/m 0 min 0 min 0,0 UV-I 113 W/m 23,2 km/h (4 Bft)
10.07.2013 19:14 21,0 C 20,1 C 63 % 1019,9 hPa 0,0 l/m 0 min 0 min 0,0 UV-I 125 W/m 25,7 km/h (4 Bft)
10.07.2013 19:16 20,9 C 20,1 C 64 % 1019,9 hPa 0,0 l/m 0 min 0 min 0,0 UV-I 105 W/m 15,4 km/h (3 Bft)
10.07.2013 19:18 20,9 C 20,1 C 64 % 1019,9 hPa 0,0 l/m 0 min 0 min 0,0 UV-I 102 W/m 12,9 km/h (3 Bft)
10.07.2013 19:20 20,8 C 20,1 C 64 % 1019,9 hPa 0,0 l/m 0 min 0 min 0,0 UV-I 104 W/m 15,4 km/h (3 Bft)
10.07.2013 19:22 20,8 C 20,1 C 64 % 1019,9 hPa 0,0 l/m 0 min 0 min 0,0 UV-I 100 W/m 20,6 km/h (4 Bft)
10.07.2013 19:24 20,7 C 20,1 C 63 % 1019,9 hPa 0,0 l/m 0 min 0 min 0,0 UV-I 98 W/m 15,4 km/h (3 Bft)
10.07.2013 19:26 20,6 C 20,1 C 64 % 1019,9 hPa 0,0 l/m 0 min 0 min 0,0 UV-I 95 W/m 23,2 km/h (4 Bft)
10.07.2013 19:28 20,6 C 19,6 C 64 % 1019,9 hPa 0,0 l/m 0 min 0 min 0,0 UV-I 93 W/m 25,7 km/h (4 Bft)
10.07.2013 19:30 20,4 C 19,6 C 64 % 1019,9 hPa 0,0 l/m 0 min 0 min 0,0 UV-I 86 W/m 20,6 km/h (4 Bft)
10.07.2013 19:32 20,3 C 19,6 C 64 % 1019,9 hPa 0,0 l/m 0 min 0 min 0,0 UV-I 83 W/m 18,0 km/h (3 Bft)
10.07.2013 19:34 20,3 C 19,6 C 64 % 1019,9 hPa 0,0 l/m 0 min 0 min 0,0 UV-I 83 W/m 20,6 km/h (4 Bft)
10.07.2013 19:36 20,2 C 19,6 C 65 % 1019,9 hPa 0,0 l/m 0 min 0 min 0,0 UV-I 84 W/m 12,9 km/h (3 Bft)
10.07.2013 19:38 20,2 C 19,6 C 65 % 1019,9 hPa 0,0 l/m 0 min 0 min 0,0 UV-I 83 W/m 23,2 km/h (4 Bft)
10.07.2013 19:40 20,1 C 19,6 C 65 % 1019,9 hPa 0,0 l/m 0 min 0 min 0,0 UV-I 83 W/m 20,6 km/h (4 Bft)
10.07.2013 19:42 20,1 C 19,6 C 64 % 1019,9 hPa 0,0 l/m 0 min 0 min 0,0 UV-I 81 W/m 23,2 km/h (4 Bft)
10.07.2013 19:44 20,0 C 19,0 C 64 % 1019,9 hPa 0,0 l/m 0 min 0 min 0,0 UV-I 83 W/m 18,0 km/h (3 Bft)
10.07.2013 19:46 20,0 C 19,0 C 65 % 1019,9 hPa 0,0 l/m 0 min 0 min 0,0 UV-I 77 W/m 15,4 km/h (3 Bft)
10.07.2013 19:48 19,9 C 19,0 C 64 % 1019,9 hPa 0,0 l/m 0 min 0 min 0,0 UV-I 77 W/m 20,6 km/h (4 Bft)
10.07.2013 19:50 19,8 C 19,0 C 64 % 1019,9 hPa 0,0 l/m 0 min 0 min 0,0 UV-I 76 W/m 15,4 km/h (3 Bft)
10.07.2013 19:52 19,8 C 19,0 C 65 % 1019,9 hPa 0,0 l/m 0 min 0 min 0,0 UV-I 74 W/m 20,6 km/h (4 Bft)
10.07.2013 19:54 19,8 C 19,0 C 65 % 1020,0 hPa 0,0 l/m 0 min 0 min 0,0 UV-I 72 W/m 15,4 km/h (3 Bft)
10.07.2013 19:56 19,8 C 19,0 C 66 % 1020,0 hPa 0,0 l/m 0 min 0 min 0,0 UV-I 72 W/m 20,6 km/h (4 Bft)
10.07.2013 19:58 19,7 C 19,0 C 66 % 1020,0 hPa 0,0 l/m 0 min 0 min 0,0 UV-I 70 W/m 36,0 km/h (5 Bft)
10.07.2013 20:00 19,6 C 18,4 C 66 % 1020,0 hPa 0,0 l/m 0 min 0 min 0,0 UV-I 67 W/m 25,7 km/h (4 Bft)
10.07.2013 20:02 19,5 C 18,4 C 67 % 1020,0 hPa 0,0 l/m 0 min 0 min 0,0 UV-I 63 W/m 20,6 km/h (4 Bft)
10.07.2013 20:06 19,4 C 18,4 C 67 % 1020,0 hPa 0,0 l/m 0 min 0 min 0,0 UV-I 65 W/m 18,0 km/h (3 Bft)
10.07.2013 20:08 19,3 C 18,4 C 68 % 1020,0 hPa 0,0 l/m 0 min 0 min 0,0 UV-I 65 W/m 20,6 km/h (4 Bft)
10.07.2013 20:10 19,3 C 18,4 C 68 % 1020,0 hPa 0,0 l/m 0 min 0 min 0,0 UV-I 65 W/m 18,0 km/h (3 Bft)
10.07.2013 20:12 19,2 C 18,4 C 68 % 1020,1 hPa 0,0 l/m 0 min 0 min 0,0 UV-I 60 W/m 20,6 km/h (4 Bft)
10.07.2013 20:14 19,2 C 18,4 C 67 % 1020,0 hPa 0,0 l/m 0 min 0 min 0,0 UV-I 62 W/m 30,9 km/h (5 Bft)
10.07.2013 20:16 19,1 C 17,9 C 68 % 1020,0 hPa 0,0 l/m 0 min 0 min 0,0 UV-I 58 W/m 23,2 km/h (4 Bft)
10.07.2013 20:18 19,0 C 17,9 C 68 % 1020,0 hPa 0,0 l/m 0 min 0 min 0,0 UV-I 58 W/m 23,2 km/h (4 Bft)
10.07.2013 20:20 18,9 C 17,9 C 68 % 1020,1 hPa 0,0 l/m 0 min 0 min 0,0 UV-I 58 W/m 20,6 km/h (4 Bft)
10.07.2013 20:22 18,9 C 17,9 C 69 % 1020,0 hPa 0,0 l/m 0 min 0 min 0,0 UV-I 56 W/m 30,9 km/h (5 Bft)
10.07.2013 20:24 18,8 C 17,9 C 69 % 1020,1 hPa 0,0 l/m 0 min 0 min 0,0 UV-I 54 W/m 12,9 km/h (3 Bft)
10.07.2013 20:26 18,8 C 17,9 C 69 % 1020,1 hPa 0,0 l/m 0 min 0 min 0,0 UV-I 53 W/m 15,4 km/h (3 Bft)
10.07.2013 20:28 18,8 C 17,9 C 69 % 1020,1 hPa 0,0 l/m 0 min 0 min 0,0 UV-I 51 W/m 10,3 km/h (2 Bft)
10.07.2013 20:30 18,7 C 17,9 C 69 % 1020,1 hPa 0,0 l/m 0 min 0 min 0,0 UV-I 49 W/m 20,6 km/h (4 Bft)
10.07.2013 20:32 18,7 C 17,9 C 69 % 1020,1 hPa 0,0 l/m 0 min 0 min 0,0 UV-I 47 W/m 30,9 km/h (5 Bft)
10.07.2013 20:34 18,7 C 17,9 C 70 % 1020,1 hPa 0,0 l/m 0 min 0 min 0,0 UV-I 47 W/m 28,3 km/h (4 Bft)
10.07.2013 20:36 18,6 C 17,3 C 70 % 1020,2 hPa 0,0 l/m 0 min 0 min 0,0 UV-I 46 W/m 36,0 km/h (5 Bft)
10.07.2013 20:38 18,4 C 17,3 C 71 % 1020,1 hPa 0,0 l/m 0 min 0 min 0,0 UV-I 46 W/m 15,4 km/h (3 Bft)
10.07.2013 20:40 18,3 C 17,3 C 71 % 1020,2 hPa 0,0 l/m 0 min 0 min 0,0 UV-I 44 W/m 33,5 km/h (5 Bft)
10.07.2013 20:42 18,2 C 17,3 C 71 % 1020,2 hPa 0,0 l/m 0 min 0 min 0,0 UV-I 44 W/m 28,3 km/h (4 Bft)
10.07.2013 20:44 18,1 C 17,3 C 71 % 1020,2 hPa 0,0 l/m 0 min 0 min 0,0 UV-I 42 W/m 23,2 km/h (4 Bft)
10.07.2013 20:46 18,0 C 16,8 C 71 % 1020,2 hPa 0,0 l/m 0 min 0 min 0,0 UV-I 42 W/m 18,0 km/h (3 Bft)
10.07.2013 20:48 17,9 C 16,8 C 72 % 1020,4 hPa 0,0 l/m 0 min 0 min 0,0 UV-I 40 W/m 23,2 km/h (4 Bft)
10.07.2013 20:50 17,8 C 16,8 C 72 % 1020,3 hPa 0,0 l/m 0 min 0 min 0,0 UV-I 37 W/m 30,9 km/h (5 Bft)
10.07.2013 20:52 17,8 C 16,8 C 72 % 1020,4 hPa 0,0 l/m 0 min 0 min 0,0 UV-I 33 W/m 18,0 km/h (3 Bft)
10.07.2013 20:54 17,7 C 16,8 C 72 % 1020,4 hPa 0,0 l/m 0 min 0 min 0,0 UV-I 33 W/m 12,9 km/h (3 Bft)
10.07.2013 20:56 17,7 C 16,8 C 72 % 1020,4 hPa 0,0 l/m 0 min 0 min 0,0 UV-I 33 W/m 15,4 km/h (3 Bft)
10.07.2013 20:58 17,7 C 16,8 C 72 % 1020,4 hPa 0,0 l/m 0 min 0 min 0,0 UV-I 32 W/m 18,0 km/h (3 Bft)
10.07.2013 21:00 17,7 C 16,2 C 73 % 1020,4 hPa 0,0 l/m 0 min 0 min 0,0 UV-I 30 W/m 12,9 km/h (3 Bft)
10.07.2013 21:02 17,6 C 16,2 C 73 % 1020,5 hPa 0,0 l/m 0 min 0 min 0,0 UV-I 28 W/m 20,6 km/h (4 Bft)
10.07.2013 21:06 17,5 C 16,2 C 73 % 1020,5 hPa 0,0 l/m 0 min 0 min 0,0 UV-I 26 W/m 18,0 km/h (3 Bft)
10.07.2013 21:08 17,4 C 16,2 C 72 % 1020,6 hPa 0,0 l/m 0 min 0 min 0,0 UV-I 25 W/m 18,0 km/h (3 Bft)
10.07.2013 21:10 17,3 C 16,2 C 72 % 1020,6 hPa 0,0 l/m 0 min 0 min 0,0 UV-I 23 W/m 12,9 km/h (3 Bft)
10.07.2013 21:12 17,3 C 16,2 C 72 % 1020,6 hPa 0,0 l/m 0 min 0 min 0,0 UV-I 23 W/m 15,4 km/h (3 Bft)
10.07.2013 21:14 17,2 C 15,7 C 72 % 1020,6 hPa 0,0 l/m 0 min 0 min 0,0 UV-I 21 W/m 12,9 km/h (3 Bft)
10.07.2013 21:16 17,2 C 15,7 C 72 % 1020,6 hPa 0,0 l/m 0 min 0 min 0,0 UV-I 19 W/m 23,2 km/h (4 Bft)
10.07.2013 21:18 17,1 C 15,7 C 72 % 1020,7 hPa 0,0 l/m 0 min 0 min 0,0 UV-I 19 W/m 15,4 km/h (3 Bft)
10.07.2013 21:20 17,1 C 15,7 C 72 % 1020,7 hPa 0,0 l/m 0 min 0 min 0,0 UV-I 19 W/m 15,4 km/h (3 Bft)
10.07.2013 21:22 17,0 C 15,7 C 73 % 1020,7 hPa 0,0 l/m 0 min 0 min 0,0 UV-I 16 W/m 10,3 km/h (2 Bft)
10.07.2013 21:24 16,9 C 15,7 C 73 % 1020,7 hPa 0,0 l/m 0 min 0 min 0,0 UV-I 16 W/m 18,0 km/h (3 Bft)
10.07.2013 21:26 16,9 C 15,7 C 73 % 1020,8 hPa 0,0 l/m 0 min 0 min 0,0 UV-I 14 W/m 20,6 km/h (4 Bft)
10.07.2013 21:28 16,8 C 15,7 C 73 % 1020,8 hPa 0,0 l/m 0 min 0 min 0,0 UV-I 12 W/m 18,0 km/h (3 Bft)
10.07.2013 21:30 16,7 C 15,1 C 73 % 1020,8 hPa 0,0 l/m 0 min 0 min 0,0 UV-I 12 W/m 23,2 km/h (4 Bft)
10.07.2013 21:32 16,7 C 15,1 C 73 % 1020,8 hPa 0,0 l/m 0 min 0 min 0,0 UV-I 11 W/m 18,0 km/h (3 Bft)
10.07.2013 21:34 16,6 C 15,1 C 73 % 1020,9 hPa 0,0 l/m 0 min 0 min 0,0 UV-I 9 W/m 10,3 km/h (2 Bft)
10.07.2013 21:36 16,5 C 15,1 C 73 % 1020,9 hPa 0,0 l/m 0 min 0 min 0,0 UV-I 9 W/m 20,6 km/h (4 Bft)
10.07.2013 21:38 16,4 C 15,1 C 73 % 1020,9 hPa 0,0 l/m 0 min 0 min 0,0 UV-I 7 W/m 15,4 km/h (3 Bft)
10.07.2013 21:40 16,4 C 15,1 C 73 % 1020,9 hPa 0,0 l/m 0 min 0 min 0,0 UV-I 7 W/m 10,3 km/h (2 Bft)
10.07.2013 21:42 16,3 C 15,1 C 73 % 1021,0 hPa 0,0 l/m 0 min 0 min 0,0 UV-I 5 W/m 12,9 km/h (3 Bft)
10.07.2013 21:44 16,2 C 15,1 C 73 % 1021,0 hPa 0,0 l/m 0 min 0 min 0,0 UV-I 5 W/m 15,4 km/h (3 Bft)
10.07.2013 21:46 16,2 C 14,6 C 73 % 1021,0 hPa 0,0 l/m 0 min 0 min 0,0 UV-I 5 W/m 12,9 km/h (3 Bft)
10.07.2013 21:48 16,1 C 14,6 C 73 % 1021,1 hPa 0,0 l/m 0 min 0 min 0,0 UV-I 0 W/m 15,4 km/h (3 Bft)
10.07.2013 21:50 16,1 C 14,6 C 74 % 1021,0 hPa 0,0 l/m 0 min 0 min 0,0 UV-I 0 W/m 28,3 km/h (4 Bft)
10.07.2013 21:52 16,0 C 14,6 C 74 % 1021,0 hPa 0,0 l/m 0 min 0 min 0,0 UV-I 0 W/m 20,6 km/h (4 Bft)
10.07.2013 21:54 15,9 C 14,6 C 74 % 1021,1 hPa 0,0 l/m 0 min 0 min 0,0 UV-I 0 W/m 18,0 km/h (3 Bft)
10.07.2013 21:56 15,9 C 14,6 C 74 % 1021,0 hPa 0,0 l/m 0 min 0 min 0,0 UV-I 0 W/m 18,0 km/h (3 Bft)
10.07.2013 21:58 15,9 C 14,6 C 74 % 1021,1 hPa 0,0 l/m 0 min 0 min 0,0 UV-I 0 W/m 15,4 km/h (3 Bft)
10.07.2013 22:00 15,8 C 14,6 C 74 % 1021,2 hPa 0,0 l/m 0 min 0 min 0,0 UV-I 0 W/m 18,0 km/h (3 Bft)
10.07.2013 22:02 15,8 C 14,6 C 74 % 1021,2 hPa 0,0 l/m 0 min 0 min 0,0 UV-I 0 W/m 15,4 km/h (3 Bft)
10.07.2013 22:06 15,8 C 14,6 C 74 % 1021,1 hPa 0,0 l/m 0 min 0 min 0,0 UV-I 0 W/m 23,2 km/h (4 Bft)
10.07.2013 22:08 15,8 C 14,6 C 74 % 1021,2 hPa 0,0 l/m 0 min 0 min 0,0 UV-I 0 W/m 7,7 km/h (2 Bft)
10.07.2013 22:10 15,7 C 14,6 C 74 % 1021,3 hPa 0,0 l/m 0 min 0 min 0,0 UV-I 0 W/m 10,3 km/h (2 Bft)
10.07.2013 22:12 15,7 C 14,6 C 74 % 1021,3 hPa 0,0 l/m 0 min 0 min 0,0 UV-I 0 W/m 15,4 km/h (3 Bft)
10.07.2013 22:14 15,7 C 14,6 C 74 % 1021,3 hPa 0,0 l/m 0 min 0 min 0,0 UV-I 0 W/m 15,4 km/h (3 Bft)
10.07.2013 22:16 15,7 C 14,6 C 74 % 1021,3 hPa 0,0 l/m 0 min 0 min 0,0 UV-I 0 W/m 15,4 km/h (3 Bft)
10.07.2013 22:18 15,7 C 14,6 C 75 % 1021,3 hPa 0,0 l/m 0 min 0 min 0,0 UV-I 0 W/m 12,9 km/h (3 Bft)
10.07.2013 22:20 15,7 C 14,6 C 75 % 1021,3 hPa 0,0 l/m 0 min 0 min 0,0 UV-I 0 W/m 18,0 km/h (3 Bft)
10.07.2013 22:22 15,7 C 14,6 C 75 % 1021,2 hPa 0,0 l/m 0 min 0 min 0,0 UV-I 0 W/m 23,2 km/h (4 Bft)
10.07.2013 22:24 15,6 C 14,6 C 75 % 1021,1 hPa 0,0 l/m 0 min 0 min 0,0 UV-I 0 W/m 20,6 km/h (4 Bft)
10.07.2013 22:26 15,6 C 14,6 C 74 % 1021,3 hPa 0,0 l/m 0 min 0 min 0,0 UV-I 0 W/m 20,6 km/h (4 Bft)
10.07.2013 22:28 15,6 C 14,6 C 74 % 1021,3 hPa 0,0 l/m 0 min 0 min 0,0 UV-I 0 W/m 15,4 km/h (3 Bft)
10.07.2013 22:30 15,6 C 14,6 C 74 % 1021,3 hPa 0,0 l/m 0 min 0 min 0,0 UV-I 0 W/m 23,2 km/h (4 Bft)
10.07.2013 22:32 15,5 C 14,6 C 74 % 1021,3 hPa 0,0 l/m 0 min 0 min 0,0 UV-I 0 W/m 20,6 km/h (4 Bft)
10.07.2013 22:34 15,5 C 14,6 C 74 % 1021,2 hPa 0,0 l/m 0 min 0 min 0,0 UV-I 0 W/m 15,4 km/h (3 Bft)
10.07.2013 22:36 15,5 C 14,6 C 74 % 1021,3 hPa 0,0 l/m 0 min 0 min 0,0 UV-I 0 W/m 15,4 km/h (3 Bft)
10.07.2013 22:38 15,4 C 14,6 C 74 % 1021,3 hPa 0,0 l/m 0 min 0 min 0,0 UV-I 0 W/m 18,0 km/h (3 Bft)
10.07.2013 22:40 15,4 C 14,6 C 73 % 1021,3 hPa 0,0 l/m 0 min 0 min 0,0 UV-I 0 W/m 18,0 km/h (3 Bft)
10.07.2013 22:42 15,4 C 14,6 C 73 % 1021,3 hPa 0,0 l/m 0 min 0 min 0,0 UV-I 0 W/m 20,6 km/h (4 Bft)
10.07.2013 22:44 15,3 C 14,6 C 73 % 1021,2 hPa 0,0 l/m 0 min 0 min 0,0 UV-I 0 W/m 20,6 km/h (4 Bft)
10.07.2013 22:46 15,3 C 14,6 C 73 % 1021,2 hPa 0,0 l/m 0 min 0 min 0,0 UV-I 0 W/m 20,6 km/h (4 Bft)
10.07.2013 22:48 15,3 C 14,6 C 73 % 1021,2 hPa 0,0 l/m 0 min 0 min 0,0 UV-I 0 W/m 20,6 km/h (4 Bft)
10.07.2013 22:50 15,3 C 14,6 C 73 % 1021,2 hPa 0,0 l/m 0 min 0 min 0,0 UV-I 0 W/m 18,0 km/h (3 Bft)
10.07.2013 22:52 15,3 C 14,6 C 73 % 1021,3 hPa 0,0 l/m 0 min 0 min 0,0 UV-I 0 W/m 18,0 km/h (3 Bft)
10.07.2013 22:54 15,3 C 14,6 C 73 % 1021,3 hPa 0,0 l/m 0 min 0 min 0,0 UV-I 0 W/m 20,6 km/h (4 Bft)
10.07.2013 22:56 15,3 C 14,6 C 73 % 1021,3 hPa 0,0 l/m 0 min 0 min 0,0 UV-I 0 W/m 15,4 km/h (3 Bft)
10.07.2013 22:58 15,2 C 14,6 C 73 % 1021,3 hPa 0,0 l/m 0 min 0 min 0,0 UV-I 0 W/m 15,4 km/h (3 Bft)
10.07.2013 23:00 15,3 C 14,6 C 73 % 1021,4 hPa 0,0 l/m 0 min 0 min 0,0 UV-I 0 W/m 10,3 km/h (2 Bft)
10.07.2013 23:02 15,3 C 14,6 C 73 % 1021,4 hPa 0,0 l/m 0 min 0 min 0,0 UV-I 0 W/m 12,9 km/h (3 Bft)
10.07.2013 23:06 15,2 C 14,6 C 73 % 1021,4 hPa 0,0 l/m 0 min 0 min 0,0 UV-I 0 W/m 15,4 km/h (3 Bft)
10.07.2013 23:08 15,3 C 14,6 C 73 % 1021,4 hPa 0,0 l/m 0 min 0 min 0,0 UV-I 0 W/m 10,3 km/h (2 Bft)
10.07.2013 23:10 15,3 C 14,6 C 73 % 1021,5 hPa 0,0 l/m 0 min 0 min 0,0 UV-I 0 W/m 12,9 km/h (3 Bft)
10.07.2013 23:12 15,3 C 14,6 C 73 % 1021,4 hPa 0,0 l/m 0 min 0 min 0,0 UV-I 0 W/m 23,2 km/h (4 Bft)
10.07.2013 23:14 15,3 C 14,6 C 73 % 1021,4 hPa 0,0 l/m 0 min 0 min 0,0 UV-I 0 W/m 12,9 km/h (3 Bft)
10.07.2013 23:16 15,3 C 14,6 C 74 % 1021,4 hPa 0,0 l/m 0 min 0 min 0,0 UV-I 0 W/m 12,9 km/h (3 Bft)
10.07.2013 23:18 15,3 C 14,6 C 74 % 1021,4 hPa 0,0 l/m 0 min 0 min 0,0 UV-I 0 W/m 15,4 km/h (3 Bft)
10.07.2013 23:20 15,3 C 14,6 C 74 % 1021,5 hPa 0,0 l/m 0 min 0 min 0,0 UV-I 0 W/m 15,4 km/h (3 Bft)
10.07.2013 23:22 15,3 C 14,6 C 74 % 1021,5 hPa 0,0 l/m 0 min 0 min 0,0 UV-I 0 W/m 15,4 km/h (3 Bft)
10.07.2013 23:24 15,3 C 14,6 C 74 % 1021,5 hPa 0,0 l/m 0 min 0 min 0,0 UV-I 0 W/m 18,0 km/h (3 Bft)
10.07.2013 23:26 15,3 C 14,6 C 74 % 1021,5 hPa 0,0 l/m 0 min 0 min 0,0 UV-I 0 W/m 20,6 km/h (4 Bft)
10.07.2013 23:28 15,3 C 14,6 C 73 % 1021,5 hPa 0,0 l/m 0 min 0 min 0,0 UV-I 0 W/m 15,4 km/h (3 Bft)
10.07.2013 23:30 15,3 C 14,6 C 73 % 1021,5 hPa 0,0 l/m 0 min 0 min 0,0 UV-I 0 W/m 18,0 km/h (3 Bft)
10.07.2013 23:32 15,3 C 14,6 C 73 % 1021,4 hPa 0,0 l/m 0 min 0 min 0,0 UV-I 0 W/m 10,3 km/h (2 Bft)
10.07.2013 23:34 15,3 C 14,6 C 73 % 1021,5 hPa 0,0 l/m 0 min 0 min 0,0 UV-I 0 W/m 7,7 km/h (2 Bft)
10.07.2013 23:36 15,3 C 14,6 C 73 % 1021,5 hPa 0,0 l/m 0 min 0 min 0,0 UV-I 0 W/m 7,7 km/h (2 Bft)
10.07.2013 23:38 15,3 C 14,6 C 73 % 1021,5 hPa 0,0 l/m 0 min 0 min 0,0 UV-I 0 W/m 23,2 km/h (4 Bft)
10.07.2013 23:40 15,3 C 14,6 C 73 % 1021,5 hPa 0,0 l/m 0 min 0 min 0,0 UV-I 0 W/m 18,0 km/h (3 Bft)
10.07.2013 23:42 15,3 C 14,6 C 73 % 1021,5 hPa 0,0 l/m 0 min 0 min 0,0 UV-I 0 W/m 12,9 km/h (3 Bft)
10.07.2013 23:44 15,3 C 14,6 C 73 % 1021,6 hPa 0,0 l/m 0 min 0 min 0,0 UV-I 0 W/m 12,9 km/h (3 Bft)
10.07.2013 23:46 15,3 C 14,6 C 73 % 1021,6 hPa 0,0 l/m 0 min 0 min 0,0 UV-I 0 W/m 10,3 km/h (2 Bft)
10.07.2013 23:48 15,3 C 14,6 C 73 % 1021,7 hPa 0,0 l/m 0 min 0 min 0,0 UV-I 0 W/m 12,9 km/h (3 Bft)
10.07.2013 23:50 15,2 C 14,6 C 73 % 1021,6 hPa 0,0 l/m 0 min 0 min 0,0 UV-I 0 W/m 15,4 km/h (3 Bft)
10.07.2013 23:52 15,2 C 14,6 C 73 % 1021,6 hPa 0,0 l/m 0 min 0 min 0,0 UV-I 0 W/m 10,3 km/h (2 Bft)
10.07.2013 23:54 15,2 C 14,6 C 73 % 1021,6 hPa 0,0 l/m 0 min 0 min 0,0 UV-I 0 W/m 10,3 km/h (2 Bft)
10.07.2013 23:56 15,2 C 14,6 C 73 % 1021,6 hPa 0,0 l/m 0 min 0 min 0,0 UV-I 0 W/m 7,7 km/h (2 Bft)
10.07.2013 23:58 15,2 C 14,6 C 73 % 1021,6 hPa 0,0 l/m 0 min 0 min 0,0 UV-I 0 W/m 10,3 km/h (2 Bft)
_ Min-Zeit 05:44 04:56 17:44 18:48 - - - - - 00:00
Minimum _ 13,7 C 12,3 C 57 % 1019,7 hPa - - - - - 0,0 km/h (0 Bft)
_ Max-Zeit 17:32 11:18 07:28 00:24 00:00 07:58 00:00 12:32 12:54 13:50
Maximum _ 22,6 C 28,4 C 94 % 1022,5 hPa 0,0 l/m 2 min 0 min 4,7 UV-I 1023 W/m 38,6 km/h
W-NW (5 Bft)
Durchschnitt _ 18,1 C 18,2 C 76 % 1021,5 hPa #0,0 l/m #7:06 h #0 min. 2,2 UV-I 340 W/m 11,7 km/h (2 Bft)
© 2013 W. Hausmann